No downloads here. Only news and history.

PRE DATA

Datetime Release
2018-07-24 00:00:01 VA-Mass_Appeal_Riddim-WEB-2018-JAH
2018-07-24 00:00:03 Dr_Sakis-Bouger_Le_Ballon-WEB-FR-2018-AZF
2018-07-24 00:00:24 VA-Money_Fusion_Riddim-WEB-2018-JAH
2018-07-24 00:00:44 VA-Officer_Riddim-WEB-2018-JAH
2018-07-24 00:01:06 VA-Pay_Day_Riddim-WEB-2018-JAH
2018-07-24 00:01:28 VA-Road_Kill_Riddim-WEB-2018-JAH
2018-07-24 00:03:24 Station.19.S01E02.Unsichtbar.German.Dubbed.HDTV.x264-ITG
2018-07-24 00:04:08 Cash_Paid_Elway-Chorus_Not-WEB-2018-ENRAGED
2018-07-24 00:04:21 Cash_Paid_Elway-Elway_or_No_Way-WEB-2017-ENRAGED
2018-07-24 00:04:31 Cash_Paid_Elway-Plymouth_Road_Finest-WEB-2017-ENRAGED
2018-07-24 00:04:54 Jay_Parker-The_Subtle_Art_of_Heartbreak-WEB-2017-ENRAGED
2018-07-24 00:05:08 Jay_Parker-Wish_You_Enough-WEB-2018-ENRAGED
2018-07-24 00:05:21 The.Awesomes.S03E01.BDRip.x264-PHASE
2018-07-24 00:05:23 Klok_and_Dager-The_Good_Fight-WEB-2018-ENRAGED
2018-07-24 00:05:31 MAAD_MAxXx_AMILLION-Tribal_Trap-WEB-2018-ENRAGED
2018-07-24 00:05:39 The.Awesomes.S03E02.BDRip.x264-PHASE
2018-07-24 00:05:42 Mack_Nickels_and_G_Rock-Ton_Talk-WEB-2018-ENRAGED
2018-07-24 00:05:53 Maybak_Da_Don-Mayblock_Musik_Vol_3-WEB-2018-ENRAGED
2018-07-24 00:05:57 The.Awesomes.S03E03.BDRip.x264-PHASE
2018-07-24 00:06:04 Melvillous-Local_-_EP-WEB-2017-ENRAGED
2018-07-24 00:06:09 Barnwood.Builders.S07E02.Blacksmith.Breakroom.720p.WEBRip.x264-CAFFEiNE
2018-07-24 00:06:14 The.Awesomes.S03E04.BDRip.x264-PHASE
2018-07-24 00:06:16 Melvillous-No_Choice-WEB-2018-ENRAGED
2018-07-24 00:06:19 Barnwood.Builders.S07E02.Blacksmith.Breakroom.WEBRip.x264-CAFFEiNE
2018-07-24 00:06:21 The.Awesomes.S03E05.BDRip.x264-PHASE
2018-07-24 00:06:28 Mikey100k-Who_Needs_Friends-WEB-2018-ENRAGED
2018-07-24 00:06:38 Ohmega_Watts-Dropping_Gems_EP-WEB-2018-ENRAGED
2018-07-24 00:06:49 Papa_J_Ruiz-Dont_Trust_Devil-WEB-2018-ENRAGED
2018-07-24 00:06:55 The.Awesomes.S03E06.BDRip.x264-PHASE
2018-07-24 00:07:09 The.Awesomes.S03E07.BDRip.x264-PHASE
2018-07-24 00:07:11 Papa_J_Ruiz-East_Money_Bless_You-WEB-2016-ENRAGED
2018-07-24 00:07:22 Papa_J_Ruiz-Hr-1955-WEB-2015-ENRAGED
2018-07-24 00:07:24 The.Awesomes.S03E08.BDRip.x264-PHASE
2018-07-24 00:07:33 Papa_J_Ruiz-No_R3coll3ction-WEB-2013-ENRAGED
2018-07-24 00:07:37 Station.19.S01E02.Unsichtbar.GERMAN.DUBBED.720p.HDTV.x264-ZZGtv
2018-07-24 00:07:46 Ralphgotstacks-Farewell-WEB-2018-ENRAGED
2018-07-24 00:07:56 Rask_Inflikt-On_The_Run_Vol_1-WEB-2018-ENRAGED
2018-07-24 00:08:06 Six_Hunnid-Born_Hustla-WEB-2016-ENRAGED
2018-07-24 00:08:18 Six_Hunnid-Born_Hustla_Vol_3-WEB-2018-ENRAGED
2018-07-24 00:08:40 T-Rell-Get_Used_to_Me_2-WEB-2018-ENRAGED
2018-07-24 00:08:52 hefe_wine-Legend_2013_to_2016-WEB-2018-ENRAGED
2018-07-24 00:09:16 The.Awesomes.S03E09.BDRip.x264-PHASE
2018-07-24 00:09:29 The.Awesomes.S03E10.BDRip.x264-PHASE
2018-07-24 00:11:00 Hotel.Transsilvanien.3.Ein.Monster.Urlaub.TS.LD.German.720p.x264.iNTERNAL-PsO
2018-07-24 00:14:25 Hotel.Transsilvanien.3.Ein.Monster.Urlaub.TS.LD.German.x264-PsO
2018-07-24 00:15:32 Bato_Always-Born_Again-WEB-FR-2017-AZF
2018-07-24 00:15:37 DJazz_New_York_LA-Nou_Vin_Pou_Bon-WEB-FR-2018-AZF
2018-07-24 00:17:00 The.Unwilling.2007.1080p.WEBRip.x264-iNTENSO
2018-07-24 00:18:06 The.Unwilling.2007.720p.WEBRip.x264-iNTENSO
2018-07-24 00:19:15 The.Unwilling.2007.WEBRip.x264-iNTENSO
2018-07-24 00:19:58 Andre_Previn_and_London_Symphony_Orchestra-Tschaikowsky_Schwanensee-WEB-2018-ENTiTLED
2018-07-24 00:20:12 Benny_Andersson-Piano-WEB-2017-ENTiTLED_iNT
2018-07-24 00:20:22 David_Garrett-Explosive_(Deluxe)-BONUS_TRACKS-WEB-2015-ENTiTLED
2018-07-24 00:20:24 Zero.Woman.R.2007.1080p.WEBRip.x264-iNTENSO
2018-07-24 00:20:33 Edward_Simoni-Zauber_der_Panfloete-WEB-2012-ENTiTLED
2018-07-24 00:20:44 Erik_Satie-Best_of_Satie-WEB-2015-ENTiTLED
2018-07-24 00:20:57 Lion_In_The_Sky-Happy_Funeral-WEB-2018-ENTiTLED
2018-07-24 00:21:08 London_Symphony_Orchestra-Beethoven_The_Complete_Symphony_Collection-WEB-2008-ENTiTLED
2018-07-24 00:21:16 The.Awesomes.S03E01.720p.BluRay.x264-PHASE
2018-07-24 00:21:23 Ludovico_Einaudi-In_A_Time_Lapse_(Deluxe_Edition)-BONUS_TRACKS-WEB-2013-ENTiTLED_iNT
2018-07-24 00:21:31 Marielle_Nordmann-Harp_Trio_Romantic_Pieces_and_Transcriptions-WEB-2018-ENTiTLED
2018-07-24 00:21:41 The.Awesomes.S03E02.720p.BluRay.x264-PHASE
2018-07-24 00:21:43 Staatskapelle_Berlin-Brahms_Symphonies-WEB-2018-ENTiTLED
2018-07-24 00:21:54 The_Italian_Tenors-Viva_La_Vita-WEB-2014-ENTiTLED
2018-07-24 00:22:06 Two_Steps_From_Hell-Invincible-WEB-2010-ENTiTLED_iNT
2018-07-24 00:22:08 The.Awesomes.S03E03.720p.BluRay.x264-PHASE
2018-07-24 00:22:14 Two_Steps_from_Hell-Battlecry_Anthology-WEB-2015-ENTiTLED
2018-07-24 00:22:18 The.Awesomes.S03E04.720p.BluRay.x264-PHASE
2018-07-24 00:22:30 VA-Mozart_(8_Hours_of_the_Greatest_Mozarts_Works)-WEB-2016-ENTiTLED
2018-07-24 00:22:44 VA-Repo_The_Genetic_Opera_(Original_Motion_Picture_Soundtrack)-WEB-2008-ENTiTLED
2018-07-24 00:22:57 The.Awesomes.S03E05.720p.BluRay.x264-PHASE
2018-07-24 00:23:09 The.Awesomes.S03E06.720p.BluRay.x264-PHASE
2018-07-24 00:23:17 Zero.Woman.R.2007.WEBRip.x264-iNTENSO
2018-07-24 00:24:58 Our.Girl.S04E07.1080p.HDTV.H264-MTB
2018-07-24 00:25:47 On.Wings.of.Eagles.2016.FRENCH.720p.BluRay.x264-Ulysse
2018-07-24 00:26:17 The.Awesomes.S03E07.720p.BluRay.x264-PHASE
2018-07-24 00:26:34 The.Awesomes.S03E08.720p.BluRay.x264-PHASE
2018-07-24 00:29:09 The.Awesomes.S03E09.720p.BluRay.x264-PHASE
2018-07-24 00:29:37 The.Awesomes.S03E10.720p.BluRay.x264-PHASE
2018-07-24 00:29:39 Born_Dirty_and_Anna_Lunoe-Badass-SINGLE-WEB-2018-FATHEAD
2018-07-24 00:29:41 On.Wings.of.Eagles.2016.MULTi.1080p.BluRay.x264-Ulysse
2018-07-24 00:31:41 The.Awesomes.S03E01.1080p.BluRay.x264-PHASE
2018-07-24 00:32:21 The.Awesomes.S03E02.1080p.BluRay.x264-PHASE
2018-07-24 00:32:34 Cliq-Wavey-SINGLE-WEB-2017-FATHEAD
2018-07-24 00:34:51 On.Wings.of.Eagles.2016.FRENCH.BDRip.x264-Ulysse
2018-07-24 00:37:50 The.Awesomes.S03E03.1080p.BluRay.x264-PHASE
2018-07-24 00:38:09 The.Awesomes.S03E04.1080p.BluRay.x264-PHASE
2018-07-24 00:38:24 The.Awesomes.S03E05.1080p.BluRay.x264-PHASE
2018-07-24 00:39:08 The.Awesomes.S03E06.1080p.BluRay.x264-PHASE
2018-07-24 00:39:29 The.Awesomes.S03E07.1080p.BluRay.x264-PHASE
2018-07-24 00:39:57 Mensonges.S01E05.FRENCH.720p.HDTV.x264-SH0W
2018-07-24 00:39:58 The.Awesomes.S03E09.1080p.BluRay.x264-PHASE
2018-07-24 00:40:00 The.Awesomes.S03E08.1080p.BluRay.x264-PHASE
2018-07-24 00:40:20 The.Awesomes.S03E10.1080p.BluRay.x264-PHASE
2018-07-24 00:41:07 Open.Water.3.Cage.Dive.2017.MULTi.1080p.BluRay.x264-Ulysse
2018-07-24 00:41:41 Open.Water.3.Cage.Dive.2017.FRENCH.BDRip.x264-Ulysse
2018-07-24 00:41:53 Thief.of.Thieves.Season.One.Update.v1.1.0-CODEX
2018-07-24 00:42:43 Open.Water.3.Cage.Dive.2017.FRENCH.720p.BluRay.x264-Ulysse
2018-07-24 00:43:32 The.Awesomes.S02E01.BDRip.x264-PHASE
2018-07-24 00:43:52 The.Awesomes.S02E02.BDRip.x264-PHASE
2018-07-24 00:44:03 LEJ-Tir_Cadre-SINGLE-WEB-FR-2018-AZF
2018-07-24 00:44:33 The.Awesomes.S02E03.BDRip.x264-PHASE
2018-07-24 00:44:46 The.Awesomes.S02E04.BDRip.x264-PHASE
2018-07-24 00:44:59 The.Awesomes.S02E05.BDRip.x264-PHASE
2018-07-24 00:48:14 The.Awesomes.S02E06.BDRip.x264-PHASE
2018-07-24 00:48:58 The.Awesomes.S02E07.BDRip.x264-PHASE
2018-07-24 00:49:21 The.Awesomes.S02E08.BDRip.x264-PHASE
2018-07-24 00:49:33 The.Awesomes.S02E09.BDRip.x264-PHASE
2018-07-24 00:49:37 Adrial_McDonald-Random-WEB-2018-ENRAGED
2018-07-24 00:49:48 Adrial_McDonald-You_Dont_Know-SINGLE-WEB-2016-ENRAGED
2018-07-24 00:50:00 Benny_Charles-Rhythm_Blues_and_Gospel_A_Story_of_Love_Hope_and_Faith-WEB-2018-ENRAGED
2018-07-24 00:50:02 The.Awesomes.S02E10.BDRip.x264-PHASE
2018-07-24 00:50:10 Benny_Charles-Rhythm_Blues_and_Gospel_A_Story_of_Love_e_and_Faith-WEB-2018-ENRAGED
2018-07-24 00:50:12 CORY_STONE-Masquerade-WEB-2017-ENRAGED
2018-07-24 00:50:24 Cory_Stone-Funky_Tips-WEB-2018-ENRAGED
2018-07-24 00:50:33 Cory_Stone-Miami_Nights-WEB-2018-ENRAGED
2018-07-24 00:50:40 The.Awesomes.S01E01.720p.BluRay.x264-PHASE
2018-07-24 00:50:44 Cory_Stone-Wild-WEB-2017-ENRAGED
2018-07-24 00:50:57 Dameka_Rochelle-Lala_Land-WEB-2018-ENRAGED
2018-07-24 00:51:05 The.Awesomes.S01E02.720p.BluRay.x264-PHASE
2018-07-24 00:51:07 Dameka_Rochelle-Mood_Swings_2-WEB-2016-ENRAGED
2018-07-24 00:51:09 The.Awesomes.S01E03.720p.BluRay.x264-PHASE
2018-07-24 00:51:19 Dante_LaBelle-Love_And_All_That-WEB-2018-ENRAGED_iNT
2018-07-24 00:51:29 Iam3am-3_Hours_After-WEB-2018-ENRAGED
2018-07-24 00:51:31 The.Awesomes.S01E04.720p.BluRay.x264-PHASE
2018-07-24 00:51:40 KeAndra-FSTOW-WEB-2018-ENRAGED
2018-07-24 00:51:48 The.Awesomes.S01E05.720p.BluRay.x264-PHASE
2018-07-24 00:51:51 NEICEY-The_Transition-WEB-2018-ENRAGED
2018-07-24 00:52:03 RaLow-My_People-WEB-2016-ENRAGED
2018-07-24 00:52:10 The.Awesomes.S01E06.720p.BluRay.x264-PHASE
2018-07-24 00:52:14 RaLow-YogaPantzandScreenShotz-WEB-2018-ENRAGED
2018-07-24 00:52:21 The.Awesomes.S01E07.720p.BluRay.x264-PHASE
2018-07-24 00:52:25 South_Indy_Project-Relationship_Suite-WEB-2018-ENRAGED
2018-07-24 00:52:33 The.Awesomes.S01E08.720p.BluRay.x264-PHASE
2018-07-24 00:52:37 The_Evolution_Orange_Band-Lets_Celebrate-WEB-2018-ENRAGED
2018-07-24 00:52:43 The.Awesomes.S01E09.720p.BluRay.x264-PHASE
2018-07-24 00:52:47 Tylur_Starks-Speedin_Slow-WEB-2018-ENRAGED
2018-07-24 00:52:58 The.Awesomes.S01E10.720p.BluRay.x264-PHASE
2018-07-24 00:53:00 YannaMaria-Meant_to_Be-WEB-2018-ENRAGED
2018-07-24 00:59:11 Mensonges.S01E05.FRENCH.HDTV.x264-AMB3R
2018-07-24 01:04:37 Life.in.Pieces.S02E03.FRENCH.720p.HDTV.x264-SH0W
2018-07-24 01:18:24 Life.in.Pieces.S02E03.FRENCH.HDTV.x264-AMB3R
2018-07-24 01:18:49 SlimeWave.18.07.23.Surprise.Spraying.Dildo.Delights.Her.XXX.1080p.MP4-TRASHBIN
2018-07-24 01:22:41 Mensonges.S01E06.FRENCH.720p.HDTV.x264-SH0W
2018-07-24 01:31:30 SweetSinner.18.07.21.Kendra.Spades.Take.My.V-Card.XXX.1080p.MP4-KTR
2018-07-24 01:34:22 Mensonges.S01E06.FRENCH.HDTV.x264-AMB3R
2018-07-24 01:36:00 Crash.Bandicoot.N.Sane.Trilogy.Update.v20180723-CODEX
2018-07-24 01:46:46 BlackValleyGirls.18.07.24.Sizi.Sev.XXX.1080p.MP4-KTR
2018-07-24 01:48:03 CzechAmateurs.E124.Petra.XXX.1080p.MP4-KTR
2018-07-24 01:50:40 CzechAmateurs.E124.Petra.XXX.2160p.MP4-KTR
2018-07-24 01:51:52 CzechCasting.18.07.23.Sara.0241.XXX.1080p.MP4-KTR
2018-07-24 01:53:17 CzechCasting.18.07.23.Sara.0241.XXX.2160p.MP4-KTR
2018-07-24 01:54:42 SweetSinner.My.Girlfriends.Mother.13.XXX.720p.MP4-KTR
2018-07-24 02:03:50 So.You.Think.You.Can.Dance.S15E07.WEB.x264-TBS
2018-07-24 02:04:31 So.You.Think.You.Can.Dance.S15E07.720p.WEB.x264-TBS
2018-07-24 02:05:32 So.You.Think.You.Can.Dance.S15E07.1080p.WEB.x264-TBS
2018-07-24 02:09:02 Delete_-_V2P-(EOL077)-WEB-2018-MMS
2018-07-24 02:18:42 The.Awesomes.S02E01.720p.BluRay.x264-PHASE
2018-07-24 02:18:52 The.Awesomes.S02E02.720p.BluRay.x264-PHASE
2018-07-24 02:19:07 The.Awesomes.S02E03.720p.BluRay.x264-PHASE
2018-07-24 02:19:22 The.Awesomes.S02E04.720p.BluRay.x264-PHASE
2018-07-24 02:21:01 The.Awesomes.S02E05.720p.BluRay.x264-PHASE
2018-07-24 02:21:15 The.Awesomes.S02E06.720p.BluRay.x264-PHASE
2018-07-24 02:21:45 The.Awesomes.S02E07.720p.BluRay.x264-PHASE
2018-07-24 02:22:05 The.Awesomes.S02E08.720p.BluRay.x264-PHASE
2018-07-24 02:22:26 The.Awesomes.S02E09.720p.BluRay.x264-PHASE
2018-07-24 02:23:54 The.Awesomes.S02E10.720p.BluRay.x264-PHASE
2018-07-24 02:24:16 The.Awesomes.S01E01.1080p.BluRay.x264-PHASE
2018-07-24 02:24:35 The.Awesomes.S01E02.1080p.BluRay.x264-PHASE
2018-07-24 02:25:11 The.Awesomes.S01E03.1080p.BluRay.x264-PHASE
2018-07-24 02:25:20 The.Awesomes.S01E04.1080p.BluRay.x264-PHASE
2018-07-24 02:26:45 The.Awesomes.S01E05.1080p.BluRay.x264-PHASE
2018-07-24 02:27:32 The.Awesomes.S01E06.1080p.BluRay.x264-PHASE
2018-07-24 02:27:49 The.Awesomes.S01E07.1080p.BluRay.x264-PHASE
2018-07-24 02:29:06 Days.of.our.Lives.S53E210.WEB.x264-W4F
2018-07-24 02:29:32 The.Awesomes.S01E08.1080p.BluRay.x264-PHASE
2018-07-24 02:29:52 The.Awesomes.S01E09.1080p.BluRay.x264-PHASE
2018-07-24 02:30:05 The.Awesomes.S01E10.1080p.BluRay.x264-PHASE
2018-07-24 02:30:14 Days.of.our.Lives.S53E210.720p.WEB.x264-W4F
2018-07-24 02:30:38 Bang.RealMILFs.18.07.24.Mia.Li.XXX.1080p.MP4-KTR
2018-07-24 02:31:45 Days.of.our.Lives.S53E210.1080p.WEB.x264-W4F
2018-07-24 02:32:00 Cum4K.18.07.24.Ariana.Marie.Wedding.Night.Creampie.XXX.1080p.MP4-KTR
2018-07-24 02:32:49 Nite_Haus-Saturation-CD-FLAC-2018-HOUND
2018-07-24 02:33:24 Nite_Haus-Saturation-CD-2018-FANG
2018-07-24 02:33:28 Antiques.Roadshow.US.S22E24.WEB.h264-TBS
2018-07-24 02:33:58 Yes_We_Mystic-Felsenmeer-PROMO-CDR-FLAC-2018-HOUND
2018-07-24 02:33:59 The.Awesomes.S02E01.1080p.BluRay.x264-PHASE
2018-07-24 02:34:10 The.Awesomes.S02E02.1080p.BluRay.x264-PHASE
2018-07-24 02:34:18 The.Awesomes.S02E03.1080p.BluRay.x264-PHASE
2018-07-24 02:34:31 Yes_We_Mystic-Felsenmeer-PROMO-CDR-2018-FANG
2018-07-24 02:34:35 Cum4K.18.07.24.Ariana.Marie.Wedding.Night.Creampie.XXX.2160p.MP4-KTR
2018-07-24 02:34:53 The.Awesomes.S02E04.1080p.BluRay.x264-PHASE
2018-07-24 02:35:04 The.Awesomes.S02E05.1080p.BluRay.x264-PHASE
2018-07-24 02:35:08 Antiques.Roadshow.US.S22E24.1080p.WEB.h264-TBS
2018-07-24 02:35:28 Nite_Haus-Saturation-CD-2018-FANG_TRADING
2018-07-24 02:35:33 The.Awesomes.S02E06.1080p.BluRay.x264-PHASE
2018-07-24 02:35:35 The.Awesomes.S02E07.1080p.BluRay.x264-PHASE
2018-07-24 02:36:03 The.Awesomes.S02E08.1080p.BluRay.x264-PHASE
2018-07-24 02:36:06 The.Awesomes.S02E09.1080p.BluRay.x264-PHASE
2018-07-24 02:36:12 Antiques.Roadshow.US.S22E24.720p.WEB.h264-TBS
2018-07-24 02:36:24 The.Awesomes.S02E10.1080p.BluRay.x264-PHASE
2018-07-24 02:36:50 Napoleon_Cherry-Napoleon-(NCM9801)-WEB-2003-LEB_INT
2018-07-24 02:46:14 LethalHardcore.Me.My.Wife.And.Our.Sex.Doll.XXX.720p.MP4-KTR
2018-07-24 02:48:56 LethalHardcore.Me.My.Wife.And.Our.Sex.Doll.XXX.1080p.MP4-KTR
2018-07-24 02:54:09 Elementary.S06E12.720p.HDTV.x264-KILLERS
2018-07-24 02:54:21 HotLegsAndFeet.18.07.24.Zoe.Doll.And.Amirah.XXX.1080p.MP4-KTR
2018-07-24 02:56:25 HotLegsAndFeet.18.07.24.Zoe.Doll.And.Amirah.XXX.2160p.MP4-KTR
2018-07-24 03:01:54 Elementary.S06E12.HDTV.x264-KILLERS
2018-07-24 03:14:54 These.Woods.Are.Haunted.S01E01.The.Hell.Hound.720p.HDTV.x264-CRiMSON
2018-07-24 03:15:20 These.Woods.Are.Haunted.S01E01.The.Hell.Hound.HDTV.x264-CRiMSON
2018-07-24 03:30:11 American.Monster.S03E03.720p.HDTV.x264-W4F
2018-07-24 03:30:30 American.Monster.S03E03.HDTV.x264-W4F
2018-07-24 03:33:44 Pokemon.S21E16.DUBBED.720p.HDTV.x264-W4F
2018-07-24 03:35:18 Pokemon.S21E16.DUBBED.HDTV.x264-W4F
2018-07-24 03:36:53 Pokemon.S21E17.DUBBED.720p.HDTV.x264-W4F
2018-07-24 03:38:27 Pokemon.S21E17.DUBBED.HDTV.x264-W4F
2018-07-24 03:40:02 Pokemon.S21E18.DUBBED.720p.HDTV.x264-W4F
2018-07-24 03:41:34 Pokemon.S21E18.DUBBED.HDTV.x264-W4F
2018-07-24 03:43:13 Pokemon.S21E19.DUBBED.720p.HDTV.x264-W4F
2018-07-24 03:44:47 Pokemon.S21E19.DUBBED.HDTV.x264-W4F
2018-07-24 03:46:21 Shark.Week.2018.Bear.vs.Shark.HDTV.x264-W4F
2018-07-24 03:47:57 Shark.Week.2018.Bear.vs.Shark.720p.HDTV.x264-W4F
2018-07-24 03:48:24 EndyEnds-Palace-(EP)-WEB-2018-ESG
2018-07-24 03:48:38 Smokey_G-A.O.Y.B.-WEB-2018-ESG
2018-07-24 03:48:56 Smokey_G-Check_The_Resume-WEB-2017-ESG
2018-07-24 03:49:12 DreDay4everBaby_And_AyoBluntGod-Get_Blowed-WEB-2016-ESG
2018-07-24 03:49:33 Yo-Kai.Watch.S02E03.DUBBED.REAL.720p.HDTV.x264-W4F
2018-07-24 03:49:38 DreDay4everBaby_And_AyoBluntGod-House_Party_Ep-WEB-2017-ESG
2018-07-24 03:50:33 Taye_Zooited-Late_Nights_On_The_Ave-WEB-2018-ESG
2018-07-24 03:50:54 Highway_Tone-Mob_Affiliations-WEB-2018-ESG
2018-07-24 03:51:08 Yo-Kai.Watch.S02E03.DUBBED.REAL.HDTV.x264-W4F
2018-07-24 03:52:42 Yo-Kai.Watch.S02E04.DUBBED.REAL.720p.HDTV.x264-W4F
2018-07-24 03:54:18 Yo-Kai.Watch.S02E04.DUBBED.REAL.HDTV.x264-W4F
2018-07-24 03:55:54 Yellowstone.in.Four.Seasons.2017.720p.HDTV.x264-W4F
2018-07-24 03:57:27 Yellowstone.in.Four.Seasons.2017.HDTV.x264-W4F
2018-07-24 03:58:28 Salvation.S02E05.720p.HDTV.x264-AVS
2018-07-24 03:59:02 Yan.Can.Cook.Spice.Kingdom.S01E10.Rising.Stars.720p.HDTV.x264-W4F
2018-07-24 03:59:10 Salvation.S02E05.HDTV.x264-SVA
2018-07-24 04:00:36 Yan.Can.Cook.Spice.Kingdom.S01E10.Rising.Stars.HDTV.x264-W4F
2018-07-24 04:01:28 Love.and.Hip.Hop.Hollywood.S05E01.Clutch.Your.Pearls.HDTV.x264-CRiMSON
2018-07-24 04:02:12 HD-Hidden_Agendas_II_Uninvited_Guests-WEB-2018-ESG
2018-07-24 04:02:13 Wheel.Of.Fortune.S35E105.Wheel.Across.America.5.720p.HDTV.x264-W4F
2018-07-24 04:03:30 Cops.S31E11.WEB.x264-TBS
2018-07-24 04:03:47 Wheel.Of.Fortune.S35E105.Wheel.Across.America.5.HDTV.x264-W4F
2018-07-24 04:04:30 Cops.S31E11.720p.WEB.x264-TBS
2018-07-24 04:04:33 ST_Spittin-Footwrk-WEB-2018-ESG
2018-07-24 04:04:42 Dietland.S01E09.720p.HDTV.x264-AVS
2018-07-24 04:05:15 Dietland.S01E09.HDTV.x264-SVA
2018-07-24 04:05:22 Wheel.Of.Fortune.S35E111.Walt.Disney.World.Orlando.6.720p.HDTV.x264-W4F
2018-07-24 04:06:31 Tay_Assassin-Boss_Ties-WEB-2018-ESG
2018-07-24 04:06:40 Cops.S31E11.1080p.WEB.x264-TBS
2018-07-24 04:06:57 Wheel.Of.Fortune.S35E112.Walt.Disney.World.Orlando.7.720p.HDTV.x264-W4F
2018-07-24 04:08:32 Wheel.Of.Fortune.S35E111.Walt.Disney.World.Orlando.6.HDTV.x264-W4F
2018-07-24 04:10:07 Wheel.Of.Fortune.S35E112.Walt.Disney.World.Orlando.7.HDTV.x264-W4F
2018-07-24 04:11:43 Wheel.Of.Fortune.S35E113.Walt.Disney.World.Orlando.8.720p.HDTV.x264-W4F
2018-07-24 04:12:15 Tay_Assassin-2_Huntazpoint_4_The_Radio-WEB-2015-ESG
2018-07-24 04:13:17 Wheel.Of.Fortune.S35E113.Walt.Disney.World.Orlando.8.HDTV.x264-W4F
2018-07-24 04:13:54 Stephen_Brodsky-Stephen_Brodskys_Octave_Museum-CD-FLAC-2006-FATHEAD
2018-07-24 04:14:53 Wheel.Of.Fortune.S35E114.Walt.Disney.World.Orlando.9.720p.HDTV.x264-W4F
2018-07-24 04:14:59 Stephen_Brodsky-Stephen_Brodskys_Octave_Museum-2006-FATHEAD_INT
2018-07-24 04:16:27 Wheel.Of.Fortune.S35E114.Walt.Disney.World.Orlando.9.HDTV.x264-W4F
2018-07-24 04:18:03 Wheel.Of.Fortune.S35E115.Walt.Disney.World.Orlando.10.720p.HDTV.x264-W4F
2018-07-24 04:19:38 Wheel.Of.Fortune.S35E115.Walt.Disney.World.Orlando.10.HDTV.x264-W4F
2018-07-24 04:22:31 Fabricated.City.2017.COMPLETE.BLURAY-REGRET
2018-07-24 04:27:07 VA-Beaches_And_Bridges_Vol_6-WEB-2018-ESG
2018-07-24 04:33:01 Prodkt-Hood_Diamondz_Vol_2-WEB-2018-ESG
2018-07-24 04:34:33 Rapunzels.Tangled.Adventure.S02E04.720p.HDTV.x264-W4F
2018-07-24 04:36:07 Rapunzels.Tangled.Adventure.S02E04.HDTV.x264-W4F
2018-07-24 04:36:24 Glocc-Statin_The_Obvious-WEB-2017-ESG
2018-07-24 04:37:41 Rapunzels.Tangled.Adventure.S02E05.720p.HDTV.x264-W4F
2018-07-24 04:38:36 Shark.After.Dark.S06E01.Sharks.Ronda.and.Bear-Oh.my.1080p.WEB.x264-CAFFEiNE
2018-07-24 04:39:01 Shark.After.Dark.S06E01.Sharks.Ronda.and.Bear-Oh.my.720p.WEB.x264-CAFFEiNE
2018-07-24 04:39:08 Love.and.Hip.Hop.Hollywood.S05E01.Clutch.Your.Pearls.720p.HDTV.x264-CRiMSON
2018-07-24 04:39:18 Rapunzels.Tangled.Adventure.S02E05.HDTV.x264-W4F
2018-07-24 04:39:24 Shark.After.Dark.S06E01.Sharks.Ronda.and.Bear-Oh.my.WEB.x264-CAFFEiNE
2018-07-24 04:40:54 Live.PD.Presents.PD.Cam.S01E01.HDTV.x264-W4F
2018-07-24 04:42:26 Live.PD.Presents.PD.Cam.S01E02.HDTV.x264-W4F
2018-07-24 04:44:01 Live.PD.Presents.PD.Cam.S01E01.720p.HDTV.x264-W4F
2018-07-24 04:44:27 Andreas_Schweighofer-Brandgefaehrlich-WEB-DE-2018-ALPMP3_INT
2018-07-24 04:45:35 Live.PD.Presents.PD.Cam.S01E02.720p.HDTV.x264-W4F
2018-07-24 04:47:12 Big.City.Greens.S01E10.720p.HDTV.x264-W4F
2018-07-24 04:48:46 Big.City.Greens.S01E10.HDTV.x264-W4F
2018-07-24 04:50:20 Big.City.Greens.S01E11.720p.HDTV.x264-W4F
2018-07-24 04:51:55 Big.City.Greens.S01E11.HDTV.x264-W4F
2018-07-24 04:53:31 Big.City.Greens.S01E12.720p.HDTV.x264-W4F
2018-07-24 04:55:06 Big.City.Greens.S01E12.HDTV.x264-W4F
2018-07-24 04:56:43 Big.City.Greens.S01E13.720p.HDTV.x264-W4F
2018-07-24 04:58:15 Big.City.Greens.S01E13.HDTV.x264-W4F
2018-07-24 04:59:51 Rise.of.the.Teenage.Mutant.Ninja.Turtles.S01E01.HDTV.x264-W4F
2018-07-24 05:01:26 Rise.of.the.Teenage.Mutant.Ninja.Turtles.S01E01.720p.HDTV.x264-W4F
2018-07-24 05:03:01 The.History.of.Comedy.S02E01.720p.HDTV.x264-W4F
2018-07-24 05:03:13 TMZ.on.TV.2018.07.20.WEB.x264-TBS
2018-07-24 05:03:16 TMZ.on.TV.2018.07.20.720p.WEB.x264-TBS
2018-07-24 05:04:36 The.History.of.Comedy.S02E01.HDTV.x264-W4F
2018-07-24 05:04:59 The.Daily.Show.2018.07.23.T.I.EXTENDED.1080p.WEB.x264-TBS
2018-07-24 05:05:48 The.Daily.Show.2018.07.23.T.I.EXTENDED.720p.WEB.x264-TBS
2018-07-24 05:06:11 In.Ice.Cold.Blood.S01E02.REPACK.720p.HDTV.x264-W4F
2018-07-24 05:06:20 Live.PD.Presents.Women.on.Patrol.S01E12.HDTV.x264-CRiMSON
2018-07-24 05:07:08 The.Daily.Show.2018.07.23.T.I.EXTENDED.WEB.x264-TBS
2018-07-24 05:07:46 In.Ice.Cold.Blood.S01E07.720p.HDTV.x264-W4F
2018-07-24 05:08:19 Varldens.Undergang.Stalin.2015.Part.02.SWEDiSH.720p.WEB.h264-SweWR
2018-07-24 05:09:21 In.Ice.Cold.Blood.S01E07.HDTV.x264-W4F
2018-07-24 05:10:57 In.Ice.Cold.Blood.S01E08.720p.HDTV.x264-W4F
2018-07-24 05:12:31 In.Ice.Cold.Blood.S01E08.HDTV.x264-W4F
2018-07-24 05:14:05 Full.Frontal.With.Samantha.Bee.S03E15.720p.HDTV.x264-W4F
2018-07-24 05:15:41 Full.Frontal.With.Samantha.Bee.S03E15.HDTV.x264-W4F
2018-07-24 05:17:17 Penn.and.Teller.Fool.Us.S05E04.720p.HDTV.x264-W4F
2018-07-24 05:18:50 Penn.and.Teller.Fool.Us.S05E04.HDTV.x264-W4F
2018-07-24 05:20:27 I.Was.Prey.S02E05.720p.HDTV.x264-W4F
2018-07-24 05:20:28 Fetti_Mac-C.R.E.A.M._(Cash_Rules_Everything_Around_Me)-WEB-2018-ESG
2018-07-24 05:22:01 I.Was.Prey.S02E05.HDTV.x264-W4F
2018-07-24 05:22:28 Advanced_Suite-Drifting-(CAT226894)-WEB-2018-LEV
2018-07-24 05:23:11 Advanced_Suite-Glossary_Of_Astronomy-(CAT226869)-WEB-2018-LEV
2018-07-24 05:23:56 Advanced_Suite-The_Space_Between_Space-(CAT226879)-WEB-2017-LEV
2018-07-24 05:24:27 Live.PD.Presents.Women.on.Patrol.S01E11.HDTV.x264-CRiMSON
2018-07-24 05:24:41 Afro_Boy-African_Lounge_Music-(CAT199715)-WEB-2018-LEV
2018-07-24 05:25:26 Beatryllium-La_Tristeza-(KRASNIYREGGYBEAT01)-WEB-2018-LEV
2018-07-24 05:25:53 Live.PD.Presents.Women.on.Patrol.S01E04.720p.HDTV.x264-W4F
2018-07-24 05:26:04 Live.PD.Presents.Women.on.Patrol.S01E04.HDTV.x264-W4F
2018-07-24 05:26:14 Bonnie_Prince_Billy-Beware-WEB-2018-LEV
2018-07-24 05:26:47 Spaces.Deepest.Secrets.S04E08.720p.HDTV.x264-W4F
2018-07-24 05:26:56 CMD094-Kagami_Tears-(NOP075)-WEB-2018-LEV
2018-07-24 05:28:21 Spaces.Deepest.Secrets.S04E08.HDTV.x264-W4F
2018-07-24 05:29:11 Francesco_Digilio-Morning_Chillout-(DP972018)-WEB-2018-LEV
2018-07-24 05:29:56 Spaces.Deepest.Secrets.S04E09.720p.HDTV.x264-W4F
2018-07-24 05:29:57 Francois-Maxime_Boutault-Wheels_On_Fire-WEB-2018-LEV
2018-07-24 05:30:01 Lil_Rue-So_True_Gang-WEB-2018-ESG
2018-07-24 05:30:08 Lil_Rue-So_TruTrue_Gang-WEB-2018-ESG
2018-07-24 05:31:15 WWE.Monday.Night.RAW.2018.08.23.720p.HDTV.x264-KYR
2018-07-24 05:31:26 Raggi_Luminosi-Vero_Artificiale-(ADR356)-WEB-2018-LEV
2018-07-24 05:31:33 Spaces.Deepest.Secrets.S04E09.HDTV.x264-W4F
2018-07-24 05:32:13 Ronnie_Minder-Cinematic_Soundscapes_3_(Original_Scores_And_Epic_Music)-WEB-2018-LEV
2018-07-24 05:32:56 Si-Ro-Paradiso_Passato-(5054960815483)-WEB-2018-LEV
2018-07-24 05:33:06 Saturday.Night.Live.S43E18.Bill.Hader_Arcade.Fire.720p.HDTV.x264-W4F
2018-07-24 05:33:40 Techno_Mama-Pretty_Tech-(HB0206)-WEB-2018-LEV
2018-07-24 05:34:25 FTVMilfs.18.07.24.Melanie.Hicks.Tantalizing.Tanlines.XXX.1080p.MP4-KTR
2018-07-24 05:34:27 World_To_Zero-Solidarity_Between_Machines-WEB-2018-LEV
2018-07-24 05:34:43 Saturday.Night.Live.S43E18.Bill.Hader_Arcade.Fire.HDTV.x264-W4F
2018-07-24 05:36:16 MasterChef.US.S09E08.720p.HDTV.x264-W4F
2018-07-24 05:37:18 Nazi.Megastructures.S05E03.Hitlers.Fighting.Retreat.720p.WEB.x264-CAFFEiNE
2018-07-24 05:37:25 Nazi.Megastructures.S05E03.Hitlers.Fighting.Retreat.WEB.x264-CAFFEiNE
2018-07-24 05:37:41 J_Melo_Wet-Wettin_The_Drought_2-WEB-2018-ESG
2018-07-24 05:37:53 MasterChef.US.S09E08.HDTV.x264-W4F
2018-07-24 05:37:55 FTVMilfs.18.07.24.Melanie.Hicks.Tantalizing.Tanlines.XXX.2160p.MP4-KTR
2018-07-24 05:39:26 MasterChef.US.S09E09.720p.HDTV.x264-W4F
2018-07-24 05:41:01 MasterChef.US.S09E09.HDTV.x264-W4F
2018-07-24 05:42:10 L.O.T.S.-Flying_Saucer-WEB-2018-ESG
2018-07-24 05:42:27 L-_Dot-Connect_The_Dots-WEB-2000-ESG
2018-07-24 05:42:35 Gordon.Ramsays.24.Hours.to.Hell.and.Back.S01E05.HDTV.x264-W4F
2018-07-24 05:44:10 Gordon.Ramsays.24.Hours.to.Hell.and.Back.S01E05.720p.HDTV.x264-W4F
2018-07-24 05:45:29 Celebrity.Animal.Encounters.2018.S01E01.Kristen.Bells.Sloth.Surprise.720p.WEBRip.x264-CAFFEiNE
2018-07-24 05:45:36 Celebrity.Animal.Encounters.2018.S01E01.Kristen.Bells.Sloth.Surprise.WEBRip.x264-CAFFEiNE
2018-07-24 05:45:47 Story.Of.Cool.S01E01.Cool.In.Charge.720p.HDTV.x264-W4F
2018-07-24 05:45:49 Flava_Chasa_D-GTFOML-(Single)-WEB-2017-ESG
2018-07-24 05:46:09 Flava_Chasa_D-Get_Me_A_Bottle_Of_XO-(Single)-WEB-2017-ESG
2018-07-24 05:46:25 Flava_Chasa_D-Steady_Mobbin-(Single)-WEB-2017-ESG
2018-07-24 05:46:44 Flava_Chasa_D-You_A_Geek-(Single)-WEB-2018-ESG
2018-07-24 05:47:05 Flava_Chasa_D-Burn_That-(Single)-WEB-2017-ESG
2018-07-24 05:47:20 Story.Of.Cool.S01E01.Cool.In.Charge.HDTV.x264-W4F
2018-07-24 05:48:55 Story.Of.Cool.S01E02.Cool.for.Sale.720p.HDTV.x264-W4F
2018-07-24 05:50:30 Story.Of.Cool.S01E02.Cool.for.Sale.HDTV.x264-W4F
2018-07-24 05:52:05 Story.Of.Cool.S01E03.Cool.Rivalries.720p.HDTV.x264-W4F
2018-07-24 05:53:42 Story.Of.Cool.S01E03.Cool.Rivalries.HDTV.x264-W4F
2018-07-24 05:55:14 DuckTales.2017.S01E18.720p.HDTV.x264-W4F
2018-07-24 05:56:50 DuckTales.2017.S01E18.HDTV.x264-W4F
2018-07-24 05:58:24 DuckTales.2017.S01E19.720p.HDTV.x264-W4F
2018-07-24 06:00:01 DuckTales.2017.S01E19.HDTV.x264-W4F
2018-07-24 06:01:38 Lupin.The.3rd.Part.4.S01E08.DUBBED.HDTV.x264-W4F
2018-07-24 06:01:42 WhenGirlsPlay.18.07.24.Athena.Palomino.And.Eliza.Ibarra.In.Her.Peace.XXX.1080p.MP4-KTR
2018-07-24 06:02:55 BigTitsAtWork.18.07.24.Ryan.Keely.Product.Placement.In.Her.Pussy.XXX.1080p.MP4-KTR
2018-07-24 06:03:11 Lupin.The.3rd.Part.4.S01E08.DUBBED.720p.HDTV.x264-W4F
2018-07-24 06:04:17 RealWifeStories.18.07.24.London.River.Sports.Suck.XXX.1080p.MP4-KTR
2018-07-24 06:04:45 Coopers.Treasure.S02E04.Treasure.and.Tragedy.720p.HDTV.x264-W4F
2018-07-24 06:06:02 IKnowThatGirl.18.07.24.Sofi.Ryan.Peek.A.Boob.XXX.1080p.MP4-KTR
2018-07-24 06:06:21 Coopers.Treasure.S02E04.Treasure.and.Tragedy.HDTV.x264-W4F
2018-07-24 06:07:20 WetAndPissy.18.07.24.Ariel.Wuze.Golden.Sauna.XXX.1080p.MP4-KTR
2018-07-24 06:07:39 Live.PD.Presents.Women.on.Patrol.S01E12.720p..HDTV.x264-CRiMSON
2018-07-24 06:07:54 Coopers.Treasure.S02E05.Dragons.Teeth.720p.HDTV.x264-W4F
2018-07-24 06:07:59 Live.PD.Presents.Women.on.Patrol.S01E11.720p.HDTV.x264-CRiMSON
2018-07-24 06:09:32 Coopers.Treasure.S02E05.Dragons.Teeth.HDTV.x264-W4F
2018-07-24 06:09:52 WetAndPissy.18.07.24.Ariel.Wuze.Golden.Sauna.XXX.2160p.MP4-KTR
2018-07-24 06:12:01 Live.PD.Presents.Women.on.Patrol.S01E12.DIRFIX.720p.HDTV.x264-CRiMSON
2018-07-24 06:12:14 DogHouseDigital.18.07.24.Vinna.Reed.Double.Deep.XXX.1080p.MP4-KTR
2018-07-24 06:14:11 HardX.18.07.24.Gina.Valentina.Blow.Bang.XXX.1080p.MP4-KTR
2018-07-24 06:16:36 GingerPatch.18.07.24.Eva.Berger.XXX.1080p.MP4-KTR
2018-07-24 06:17:59 ImmoralLive.18.07.24.Samantha.Rone.XXX.1080p.MP4-KTR
2018-07-24 06:18:42 ATKPremium.com_18.07.24.Kara.Stone.XXX.IMAGESET-FuGLi
2018-07-24 06:19:26 PureTaboo.18.07.24.Whitney.Wright.The.Gold.Star.XXX.1080p.MP4-KTR
2018-07-24 06:21:12 DogHouseDigital.Double.Pound.My.Pussy.XXX.720p.MP4-KTR
2018-07-24 06:22:46 Celebrity.Family.Feud.2015.S04E06.720p.HDTV.x264-W4F
2018-07-24 06:22:59 Celebrity.Family.Feud.2015.S04E06.HDTV.x264-W4F
2018-07-24 06:23:34 ClubSeventeen.18.07.23.Little.Caprice.Live.Webcam.Recording.XXX.MP4-KTR
2018-07-24 06:27:33 ClubSeventeen.18.07.24.Clary.Solo.XXX.1080p.MP4-KTR
2018-07-24 06:29:08 ClubSeventeen.18.07.24.Lolly.Small.Hardcore.XXX.INTERNAL.1080p.MP4-KTR
2018-07-24 06:31:08 Vampirina.S01E20.720p.HDTV.x264-W4F
2018-07-24 06:31:15 Vampirina.S01E20.HDTV.x264-W4F
2018-07-24 06:32:52 Fear.Thy.Neighbor.S05E01.Desperate.Houseknives.720p.WEBRip.x264-CAFFEiNE
2018-07-24 06:32:56 PornMegaLoad.18.07.23.Anna.Kay.More.To.Fuck.XXX.1080p.MP4-KTR
2018-07-24 06:34:11 PornMegaLoad.18.07.23.Candy.Red.From.Russia.With.Fuzz.2.XXX.1080p.MP4-KTR
2018-07-24 06:34:23 Fear.Thy.Neighbor.S05E01.Desperate.Houseknives.WEBRip.x264-CAFFEiNE
2018-07-24 06:35:18 PornMegaLoad.18.07.23.Terry.Nova.A.Busty.Mirage.Called.Terry.XXX.1080p.MP4-KTR
2018-07-24 06:35:53 Fear.Thy.Neighbor.S05E02.Deadly.Duplex.720p.WEBRip.x264-CAFFEiNE
2018-07-24 06:37:22 Fear.Thy.Neighbor.S05E02.Deadly.Duplex.WEBRip.x264-CAFFEiNE
2018-07-24 06:37:26 Naza-Cest_La_Loi_(feat_Vegedream)-SINGLE-WEB-FR-2018-AZF
2018-07-24 06:38:52 Fear.Thy.Neighbor.S05E03.Head.in.the.Oven.720p.WEBRip.x264-CAFFEiNE
2018-07-24 06:38:56 American.Masters.S22E07.Louisa.May.Alcott.The.Woman.Behind.Little.Women.720p.HDTV.x264-W4F
2018-07-24 06:40:21 Fear.Thy.Neighbor.S05E03.Head.in.the.Oven.WEBRip.x264-CAFFEiNE
2018-07-24 06:40:53 WowGirls.18.07.24.Anna.Jolie.Morning.Wetness.3.XXX.1080p.MP4-KTR
2018-07-24 06:41:53 Fear.Thy.Neighbor.S05E04.Cock-a-Doodle-Dead.720p.WEBRip.x264-CAFFEiNE
2018-07-24 06:42:40 Catfish.S06E00.The.Untold.Stories.Part.9.iNTERNAL.720p.HDTV.x264-W4F
2018-07-24 06:42:46 WowGirls.18.07.24.Anna.Jolie.Morning.Wetness.3.XXX.2160p.MP4-KTR
2018-07-24 06:42:52 American.Masters.S22E07.Louisa.May.Alcott.The.Woman.Behind.Little.Women.iNTERNAL.HDTV.x264-W4F
2018-07-24 06:43:23 Fear.Thy.Neighbor.S05E04.Cock-a-Doodle-Dead.WEBRip.x264-CAFFEiNE
2018-07-24 06:44:14 The.Zoo.US.S01E05.SUBPACK.720p.HDTV.x264-W4F
2018-07-24 06:47:33 Fear.Thy.Neighbor.S05E05.Roadkill.720p.WEBRip.x264-CAFFEiNE
2018-07-24 06:47:34 Fear.Thy.Neighbor.S05E05.Roadkill.WEBRip.x264-CAFFEiNE
2018-07-24 06:47:36 Marlon_Craft-A_Dollar_In_Quarters_25c-EP-WEB-2018-UVU
2018-07-24 06:47:38 Marlon_Craft-A_Dollar_In_Quarters_50c-EP-WEB-2018-UVU
2018-07-24 06:47:39 Marlon_Craft-A_Dollar_In_Quarters_75c-EP-WEB-2018-UVU
2018-07-24 06:47:42 A.Wedding.and.a.Murder.S01E05.HDTV.x264-W4F
2018-07-24 06:47:43 A.Wedding.and.a.Murder.S01E05.720p.HDTV.x264-W4F
2018-07-24 06:47:54 Fear.Thy.Neighbor.S05E06.Mistress.of.Death.720p.WEBRip.x264-CAFFEiNE
2018-07-24 06:49:00 A.Wedding.and.a.Murder.S01E06.720p.HDTV.x264-W4F
2018-07-24 06:49:24 Fear.Thy.Neighbor.S05E06.Mistress.of.Death.WEBRip.x264-CAFFEiNE
2018-07-24 06:50:34 A.Wedding.and.a.Murder.S01E06.HDTV.x264-W4F
2018-07-24 06:50:53 Fear.Thy.Neighbor.S05E07.This.Bullets.for.You.720p.WEBRip.x264-CAFFEiNE
2018-07-24 06:51:07 These.Woods.Are.Haunted.S01E03.Werewolf.and.Demon.in.the.Woods.HDTV.x264-CRiMSON
2018-07-24 06:51:32 Alex_2_The_Sky-Monde_Connecte-WEB-FR-2018-AZF
2018-07-24 06:51:50 Meyro-Je_Plane-SINGLE-WEB-FR-2018-AZF
2018-07-24 06:51:57 Noah_Lunsi-A_Bout_De_Souffle-SINGLE-WEB-FR-2018-AZF
2018-07-24 06:52:06 Vinci-Aucun_Stress-SINGLE-WEB-FR-2018-AZF
2018-07-24 06:52:08 Cults.and.Extreme.Belief.S01E00.The.Survivors.Speak.Part.2.720p.HDTV.x264-W4F
2018-07-24 06:52:23 Fear.Thy.Neighbor.S05E07.This.Bullets.for.You.WEBRip.x264-CAFFEiNE
2018-07-24 06:53:43 Cults.and.Extreme.Belief.S01E00.The.Survivors.Speak.Part.2.HDTV.x264-W4F
2018-07-24 06:53:53 Fear.Thy.Neighbor.S05E08.The.War.Next.Door.720p.WEBRip.x264-CAFFEiNE
2018-07-24 06:55:20 In.Defense.Of.S01E01.Timothy.McVeigh.HDTV.x264-W4F
2018-07-24 06:55:23 Fear.Thy.Neighbor.S05E08.The.War.Next.Door.WEBRip.x264-CAFFEiNE
2018-07-24 06:56:11 Night.Flight.2018.S01E02.720p.HDTV.x264-W4F
2018-07-24 06:56:53 Camro-Ouais_Gros_(feat_Alrima)-SINGLE-WEB-FR-2018-AZF
2018-07-24 06:56:55 In.Defense.Of.S01E01.Timothy.McVeigh.720p.HDTV.x264-W4F
2018-07-24 06:58:28 Food.Flirts.S01E05.Pretzel.Meets.Chocolate.720p.HDTV.x264-W4F
2018-07-24 07:00:04 Food.Flirts.S01E05.Pretzel.Meets.Chocolate.HDTV.x264-W4F
2018-07-24 07:00:50 Ceptik-Lyricistes-WEB-FR-2018-AZF
2018-07-24 07:01:39 Food.Flirts.S01E06.What.Is.a.Food.Incubator.720p.HDTV.x264-W4F
2018-07-24 07:03:12 Food.Flirts.S01E06.What.Is.a.Food.Incubator.HDTV.x264-W4F
2018-07-24 07:04:48 Off.the.Map.2018.S01E01.HDTV.x264-W4F
2018-07-24 07:06:23 Off.the.Map.2018.S01E01.720p.HDTV.x264-W4F
2018-07-24 07:06:39 Salvation.S02E05.iNTERNAL.720p.WEB.x264-BAMBOOZLE
2018-07-24 07:07:58 The.Carbonaro.Effect.S04E00.Double.Takes.3.HDTV.x264-W4F
2018-07-24 07:08:22 Salvation.S02E05.1080p.WEB.x264-TBS
2018-07-24 07:09:35 The.Carbonaro.Effect.S04E00.Double.Takes.3.720p.HDTV.x264-W4F
2018-07-24 07:11:07 The.Carbonaro.Effect.S04E07.REAL.HDTV.x264-W4F
2018-07-24 07:12:27 Il.Corriere.Della.Sera.07.24.2018.iTALiAN.RETAiL.eBook-DiVER
2018-07-24 07:12:42 The.Carbonaro.Effect.S04E07.REAL.720p.HDTV.x264-W4F
2018-07-24 07:13:05 Shark.Week.2018.Cubas.Secret.Shark.Lair.WEBRip.x264-CAFFEiNE
2018-07-24 07:13:14 Shark.Week.2018.Cubas.Secret.Shark.Lair.720p.WEBRip.x264-CAFFEiNE
2018-07-24 07:14:08 Floribama.Shore.S02E03.To.Hunch.or.Not.to.Hunch.HDTV.x264-CRiMSON
2018-07-24 07:14:19 The.Carbonaro.Effect.S04E06.REAL.720p.HDTV.x264-W4F
2018-07-24 07:14:26 These.Woods.Are.Haunted.S01E03.Werewolf.and.Demon.in.the.Woods.720p.HDTV.x264-CRiMSON
2018-07-24 07:15:53 The.Carbonaro.Effect.S04E06.REAL.HDTV.x264-W4F
2018-07-24 07:17:30 The.Carbonaro.Effect.S04E08.REAL.720p.HDTV.x264-W4F
2018-07-24 07:19:02 The.Carbonaro.Effect.S04E08.REAL.HDTV.x264-W4F
2018-07-24 07:20:17 Penn.and.Teller.Fool.Us.S05E05.720p.WEB.x264-TBS
2018-07-24 07:21:12 Penn.and.Teller.Fool.Us.S05E05.WEB.x264-TBS
2018-07-24 07:22:16 The.Kitchen.S06E07.Fathers.Day.Feast.720p.HDTV.x264-W4F
2018-07-24 07:23:50 The.Kitchen.S06E07.Fathers.Day.Feast.HDTV.x264-W4F
2018-07-24 07:24:30 AllOver30.18.07.24.Alby.Daor.XXX.1080p.MP4-KTR
2018-07-24 07:25:26 The.Kitchen.S06E12.Pool.Party.720p.HDTV.x264-W4F
2018-07-24 07:26:55 AllOver30.18.07.24.Andi.James.XXX.1080p.MP4-KTR
2018-07-24 07:27:02 The.Kitchen.S06E12.Pool.Party.HDTV.x264-W4F
2018-07-24 07:27:14 Whose.Line.is.it.Anyway.US.S14E09.720p.WEB.x264-TBS
2018-07-24 07:27:58 AmateurCFNM.18.07.24.Taylor.Shay.Doctor.Blowjob.XXX.1080p.MP4-KTR
2018-07-24 07:28:35 The.Kitchen.S10E01.Make.the.Most.of.Your.Summer.Bounty.720p.HDTV.x264-W4F
2018-07-24 07:29:21 ATKGalleria.18.07.23.Dolly.Leigh.Toys.XXX.1080p.MP4-KTR
2018-07-24 07:30:10 The.Kitchen.S10E01.Make.the.Most.of.Your.Summer.Bounty.HDTV.x264-W4F
2018-07-24 07:30:48 ATKGalleria.18.07.23.Kara.Stone.Masturbation.XXX.1080p.MP4-KTR
2018-07-24 07:31:33 Whose.Line.is.it.Anyway.US.S14E09.WEB.x264-TBS
2018-07-24 07:31:45 The.Kitchen.S10E02.From.Dish.to.Shining.Dish.720p.HDTV.x264-W4F
2018-07-24 07:32:17 ATKGalleria.18.07.23.Kinsley.Ann.Toys.XXX.1080p.MP4-KTR
2018-07-24 07:33:23 The.Kitchen.S10E02.From.Dish.to.Shining.Dish.HDTV.x264-W4F
2018-07-24 07:33:37 ATKGalleria.18.07.23.Pepper.Hart.Masturbation.XXX.1080p.MP4-KTR
2018-07-24 07:34:50 ATKGalleria.18.07.23.Pepper.Hart.Toys.XXX.1080p.MP4-KTR
2018-07-24 07:34:57 The.Kitchen.S10E04.Pump.Up.Your.Summer.Party.720p.HDTV.x264-W4F
2018-07-24 07:36:00 ATKGirlfriends.18.07.24.Rina.Ellis.XXX.1080p.MP4-KTR
2018-07-24 07:36:31 The.Kitchen.S10E04.Pump.Up.Your.Summer.Party.HDTV.x264-W4F
2018-07-24 07:38:05 The.Kitchen.S10E06.Summer.Cookout.720p.HDTV.x264-W4F
2018-07-24 07:38:21 ATKGirlfriends.18.07.24.Tara.Ashley.XXX.1080p.MP4-KTR
2018-07-24 07:39:42 The.Kitchen.S10E06.Summer.Cookout.HDTV.x264-W4F
2018-07-24 07:41:17 The.Kitchen.S13E11.Throw.a.Party.for.Your.Pop.720p.HDTV.x264-W4F
2018-07-24 07:41:40 Floribama.Shore.S02E03.To.Hunch.or.Not.to.Hunch.720p.HDTV.x264-CRiMSON
2018-07-24 07:41:46 AllOver30.18.07.24.Alby.Daor.XXX.2160p.MP4-KTR
2018-07-24 07:42:01 La.Gazzetta.Dello.Sport.07.24.2018.iTALiAN.RETAiL.eBook-DiVER
2018-07-24 07:42:50 The.Kitchen.S13E11.Throw.a.Party.for.Your.Pop.HDTV.x264-W4F
2018-07-24 07:44:16 AllOver30.18.07.24.Andi.James.XXX.2160p.MP4-KTR
2018-07-24 07:44:25 The.Kitchen.S13E13.Patriotic.Party.720p.HDTV.x264-W4F
2018-07-24 07:45:35 ATKGirlfriends.18.07.24.Rina.Ellis.XXX.2160p.MP4-KTR
2018-07-24 07:46:01 The.Kitchen.S13E13.Patriotic.Party.HDTV.x264-W4F
2018-07-24 07:47:36 The.Kitchen.S14E02.Burger.Bliss.720p.HDTV.x264-W4F
2018-07-24 07:48:20 ATKGirlfriends.18.07.24.Tara.Ashley.XXX.2160p.MP4-KTR
2018-07-24 07:49:10 The.Kitchen.S14E02.Burger.Bliss.HDTV.x264-W4F
2018-07-24 07:50:46 The.Kitchen.S17E08.Mans.Best.Food.720p.HDTV.x264-W4F
2018-07-24 07:51:13 Southern.Charm.Savannah.S02E02.Pearls.Pajamas.and.Lies.HDTV.x264-CRiMSON
2018-07-24 07:52:20 The.Kitchen.S17E08.Mans.Best.Food.HDTV.x264-W4F
2018-07-24 07:53:55 The.Kitchen.S17E10.Fireworks.of.Flavor.720p.HDTV.x264-W4F
2018-07-24 07:55:30 The.Kitchen.S17E10.Fireworks.of.Flavor.HDTV.x264-W4F
2018-07-24 07:57:06 The.Kitchen.S17E11.Summer.Weeknight.Warrior.720p.HDTV.x264-W4F
2018-07-24 07:58:41 The.Kitchen.S17E11.Summer.Weeknight.Warrior.HDTV.x264-W4F
2018-07-24 08:00:15 The.Kitchen.S17E12.No-Sweat.Summer.Party.720p.HDTV.x264-W4F
2018-07-24 08:01:51 The.Kitchen.S17E12.No-Sweat.Summer.Party.HDTV.x264-W4F
2018-07-24 08:04:30 Sperma-Studio.16.03.15.Tara.Sky.Session.1.XXX.1080p.MP4-KTR
2018-07-24 08:05:33 Sperma-Studio.16.03.27.Tara.Sky.Session.2.XXX.1080p.MP4-KTR
2018-07-24 08:06:52 Sperma-Studio.16.04.19.Vicky.Wilfing.Fuck.With.Vicky.XXX.1080p.MP4-KTR
2018-07-24 08:07:44 Elementary.S06E12.1080p.WEB.x264-TBS
2018-07-24 08:08:08 Sperma-Studio.16.04.29.Jolie.And.Sexy.Celine.Barfuck.Cam.2.XXX.1080p.MP4-KTR
2018-07-24 08:09:08 Elementary.S06E12.iNTERNAL.720p.WEB.x264-BAMBOOZLE
2018-07-24 08:09:40 Sperma-Studio.16.05.01.Natalie.Sperm.Dip.XXX.1080p.MP4-KTR
2018-07-24 08:10:51 Sperma-Studio.16.05.08.Natalie.Have.Not.Enough.XXX.1080p.MP4-KTR
2018-07-24 08:11:57 Sperma-Studio.16.05.22.Slut.Steffi.XXX.1080p.MP4-KTR
2018-07-24 08:13:13 Sperma-Studio.16.05.23.Natalie.Black.Boots.Creampie.XXX.1080p.MP4-KTR
2018-07-24 08:14:09 PDC.World.Matchplay.Darts.2018.2018-07-21.Runde.1.German.1080p.HDTV.x264-WiNMAU
2018-07-24 08:14:40 Cops.S31E10.1080p.WEB.x264-TBS
2018-07-24 08:16:20 Yanks.18.07.24.Mary.Jane.Jackson.Full.Body.Hitachi.Massage.XXX.1080p.MP4-KTR
2018-07-24 08:17:11 Adamant--Elsewhere-(TH163)-WEB-2018-dh
2018-07-24 08:18:07 BlacksOnBlondes.18.07.24.Esperanza.Del.Horno.XXX.1080p.MP4-KTR
2018-07-24 08:19:09 Southern.Charm.Savannah.S02E02.Pearls.Pajamas.and.Lies.720p.HDTV.x264-CRiMSON
2018-07-24 08:19:17 Joymii.18.07.20.Andreina.De.Luxe.Daddys.Little.Bad.Girl.XXX.1080p.MP4-KTR
2018-07-24 08:20:40 PDC.World.Matchplay.Darts.2018.2018-07-21.Runde.1.German.720p.HDTV.x264-WiNMAU
2018-07-24 08:20:45 JapanHDV.18.07.24.Maria.Ono.XXX.1080p.MP4-TRASHBIN
2018-07-24 08:21:48 GirlsOutWest.18.07.24.Amber.Rose.XXX.1080p.MP4-TRASHBIN
2018-07-24 08:22:44 Armin_Van_Buuren-Live_At_Tomorrowland_Belgium_2018_(Highlights)-LIVE-WEB-2018-TosK
2018-07-24 08:23:14 GirlsOutWest.18.07.24.Amber.Rose.XXX.2160p.MP4-TRASHBIN
2018-07-24 08:24:08 PDC.World.Matchplay.Darts.2018.2018-07-21.Runde.1.German.HDTVRip.x264-WiNMAU
2018-07-24 08:25:44 Shark.Week.2018.Great.White.Abyss.720p.WEBRip.x264-CAFFEiNE
2018-07-24 08:26:01 Shark.Week.2018.Great.White.Abyss.WEBRip.x264-CAFFEiNE
2018-07-24 08:29:54 WankItNow.17.07.05.Amber.Deen.Lingerie.Assistant.XXX.1080p.MP4-KTR
2018-07-24 08:30:54 Conga_Radio_-_Right_Beside_You-(GDTIMIN_007)-WEB-2018-ZzZz
2018-07-24 08:31:12 WankItNow.17.07.05.Amber.Deen.Lingerie.Assistant.XXX.2160p.MP4-KTR
2018-07-24 08:32:25 WankItNow.17.07.06.Elouise.Please.Sisters.Do.It.Best.Part.1.XXX.1080p.MP4-KTR
2018-07-24 08:33:39 WankItNow.17.07.06.Elouise.Please.Sisters.Do.It.Best.Part.1.XXX.2160p.MP4-KTR
2018-07-24 08:34:46 WankItNow.17.07.06.Hannah.Z.Cock.Service.XXX.1080p.MP4-KTR
2018-07-24 08:35:54 WankItNow.17.07.06.Hannah.Z.Cock.Service.XXX.2160p.MP4-KTR
2018-07-24 08:36:02 PDC.World.Matchplay.Darts.2018.2018-07-22.Runde.1.Nachmittagssession.German.1080p.HDTV.x264-WiNMAU
2018-07-24 08:37:12 WankItNow.17.07.07.Roxi.Keogh.Wanking.Industry.XXX.1080p.MP4-KTR
2018-07-24 08:38:32 WankItNow.17.07.07.Roxi.Keogh.Wanking.Industry.XXX.2160p.MP4-KTR
2018-07-24 08:39:43 WankItNow.17.07.08.Britney.Worship.And.Wank.XXX.1080p.MP4-KTR
2018-07-24 08:40:56 WankItNow.17.07.08.Britney.Worship.And.Wank.XXX.2160p.MP4-KTR
2018-07-24 08:42:10 WankItNow.17.07.08.Eva.Wank.With.Me.XXX.1080p.MP4-KTR
2018-07-24 08:42:33 PDC.World.Matchplay.Darts.2018.2018-07-22.Runde.1.Nachmittagssession.German.720p.HDTV.x264-WiNMAU
2018-07-24 08:43:25 WankItNow.17.07.08.Eva.Wank.With.Me.XXX.2160p.MP4-KTR
2018-07-24 08:44:28 WankItNow.17.07.09.Sapphire.Miss.Provocative.Part.2.XXX.1080p.MP4-KTR
2018-07-24 08:45:35 WankItNow.17.07.09.Sapphire.Miss.Provocative.Part.2.XXX.2160p.MP4-KTR
2018-07-24 08:46:00 PDC.World.Matchplay.Darts.2018.2018-07-22.Runde.1.Nachmittagssession.German.HDTVRip.x264-WiNMAU
2018-07-24 08:46:47 WankItNow.17.07.10.Ashley.Rider.Bathtime.Wank.XXX.1080p.MP4-KTR
2018-07-24 08:48:03 WankItNow.17.07.10.Ashley.Rider.Bathtime.Wank.XXX.2160p.MP4-KTR
2018-07-24 08:49:10 WankItNow.17.07.10.Miss.Selene.Hot.And.Horny.Part.2.XXX.1080p.MP4-KTR
2018-07-24 08:50:22 WankItNow.17.07.10.Miss.Selene.Hot.And.Horny.Part.2.XXX.2160p.MP4-KTR
2018-07-24 08:51:45 WankItNow.18.07.24.Jamie.T.Do.You.Remember.XXX.1080p.MP4-KTR
2018-07-24 08:52:32 Andrew_Lloyd_Webber-Macskak-HU-1996-gF
2018-07-24 08:53:09 WankItNow.18.07.24.Jamie.T.Do.You.Remember.XXX.2160p.MP4-KTR
2018-07-24 08:53:42 And_The_Golden_Choir-Breaking_With_Habits-2018-gF
2018-07-24 08:53:58 PDC.World.Matchplay.Darts.2018.2018-07-22.Runde.1.Abendsession.German.1080p.HDTV.x264-WiNMAU
2018-07-24 08:54:51 Anna_Depenbusch-Das_Alphabet_Der_Anna_Depenbusch_In_Schwarz-Weiss-DE-2018-gF
2018-07-24 08:55:58 Bernd_Begemann-Die_Stadt_Und_Das_Maedchen-DE-2018-gF
2018-07-24 08:57:09 Clark_Terry-Everythings_Mellow-Plays_The_Jazz_Version_Of_All_American-Remastered-2012-gF
2018-07-24 08:57:42 PDC.World.Matchplay.Darts.2018.2018-07-22.Runde.1.Abendsession.German.720p.HDTV.x264-WiNMAU
2018-07-24 08:58:15 Cosmic_Wings-Cosmic_Wings-LP-2016-gF
2018-07-24 08:59:19 Dance-Love_Commando-LP-1990-gF
2018-07-24 08:59:58 PDC.World.Matchplay.Darts.2018.2018-07-22.Runde.1.Abendsession.German.HDTVRip.x264-WiNMAU
2018-07-24 09:00:25 Dan_Terminus-Automated_Refrains-2LP-2017-gF
2018-07-24 09:01:06 Axel_Karakasis-Pensive_Darkness-(REMAINLTD107)-WEB-2018
2018-07-24 09:01:33 David_Virelles-Gnosis-2017-gF
2018-07-24 09:01:52 MetArt.18.07.24.Mia.Sollis.Redhead.In.Nature.XXX.1080p.MP4-KTR
2018-07-24 09:02:26 Drunk.History.S05E13.WEB.x264-TBS
2018-07-24 09:02:36 Dead_Revolution-Narrow_Gates-CDR-2004-gF
2018-07-24 09:02:46 Drunk.History.S05E13.720p.WEB.x264-TBS
2018-07-24 09:03:00 TheLifeErotic.18.07.24.Emily.J.Contact.2.XXX.1080p.MP4-KTR
2018-07-24 09:03:12 Drunk.History.S05E13.1080p.WEB.x264-TBS
2018-07-24 09:03:44 Dona_Onete-Banzeiro-BR-2017-gF
2018-07-24 09:04:00 Domai.com_18.07.24.Mila.N.Set.3.XXX.IMAGESET-FuGLi
2018-07-24 09:05:32 Anilos.18.07.24.Sylvie.Sweet.Sylvie.XXX.1080p.MP4-KTR
2018-07-24 09:06:23 Axel_Karakasis-Pensive_Darkness-(REMAINLTD107)-DIRFIX-WEB-2018-B2R
2018-07-24 09:06:28 Oceans_Of_Noise-Oceans_Of_Noise-EP-WEB-2018-TosK
2018-07-24 09:06:44 Nubiles.18.07.24.Alissa.Candy.Wanting.More.XXX.1080p.MP4-KTR
2018-07-24 09:08:01 Nubiles.18.07.24.Zazi.Darling.Sun.Kissed.Cutie.XXX.1080p.MP4-KTR
2018-07-24 09:13:21 Hegre.18.07.24.Serena.L.Vagina.Monologue.XXX.1080p.MP4-KTR
2018-07-24 09:15:03 Hegre.18.07.24.Serena.L.Vagina.Monologue.XXX.2160p.MP4-KTR
2018-07-24 09:16:40 Jixipix.PuzzPix.Pro.x64.v1.0.5-LAXiTY
2018-07-24 09:16:57 NCH.Express.Burn.Plus.v7.09.Beta.incl.Keygen-LAXiTY
2018-07-24 09:17:00 JulesJordan.18.07.24.Aaliyah.Hadid.And.Bobbi.Dylan.XXX.1080p.MP4-KTR
2018-07-24 09:17:11 PanoramaStudio.Pro.v3.2.0.x64.Bilanguage-LAXiTY
2018-07-24 09:19:45 House.M.D.S02D01.MULTi.COMPLETE.BLURAY-RED
2018-07-24 09:20:32 Analized.18.07.24.Alex.Harper.Gaping.Anal.Whore.In.A.Cage.XXX.1080p.MP4-KTR
2018-07-24 09:22:26 MySistersHotFriend.18.07.24.Sophia.Leone.XXX.1080p.MP4-KTR
2018-07-24 09:23:31 Once.Upon.a.Time.S07E03.FRENCH.720p.HDTV.x264-DEAL
2018-07-24 09:23:58 Carl_Perkins-Dance_Album_And_Whole_Lotta_Shakin_The_Definitive_Edition-2012-gF
2018-07-24 09:24:14 Once.Upon.a.Time.S07E04.FRENCH.720p.HDTV.x264-DEAL
2018-07-24 09:24:37 Analized.18.07.24.Alex.Harper.Gaping.Anal.Whore.In.A.Cage.XXX.2160p.MP4-KTR
2018-07-24 09:24:57 Heart_Of_Snake-Heart_Of_Snake-EP-WEB-2018-ENTiTLED
2018-07-24 09:25:45 Chris_Liebing_feat_Polly_Scattergood-And_All_Went_Dark-(2ISTUMM418)-WEB-2018-ENSLAVE
2018-07-24 09:25:56 Michael_Price-Price_Sandham-(ERATP112DS02)-WEB-2018-ENSLAVE
2018-07-24 09:26:06 Miruga-Spirit_Garden-EP-(MG061)-WEB-2018-ENSLAVE
2018-07-24 09:26:18 Secret_Circuit-Out_of_Body_Interiors-(INVINC19)-WEB-2018-ENSLAVE
2018-07-24 09:27:20 MySistersHotFriend.18.07.24.Sophia.Leone.XXX.2160p.MP4-KTR
2018-07-24 09:28:36 Carmen_Souza_And_Theo_Pascal-Epistola-2015-gF
2018-07-24 09:30:41 Einar_Selvik-Snake_Pit_Poetry-VINYL-2017-gF
2018-07-24 09:31:03 Escaping.Polygamy.S04E06.WEB.h264-TBS
2018-07-24 09:31:26 Escaping.Polygamy.S04E06.720p.WEB.h264-TBS
2018-07-24 09:33:05 InTheCrack.E1431.Aaliyah.Love.And.Gina.Valentina.XXX.1080p.MP4-KTR
2018-07-24 09:36:48 Electro_Deluxe-Circle-2016-gF
2018-07-24 09:37:54 Farao-Eleg_Volt-Allj_Mellem-VINYL-1986-gF
2018-07-24 09:38:59 GosT-Behemoth-LP-2015-gF
2018-07-24 09:39:43 Shark.Week.2018.Monster.Tag.720p.WEBRip.x264-CAFFEiNE
2018-07-24 09:40:02 GosT-Non_Paradisi-3LP-2016-gF
2018-07-24 09:40:11 Shark.Week.2018.Monster.Tag.WEBRip.x264-CAFFEiNE
2018-07-24 09:41:09 GosT-Possessor-LP-2018-gF
2018-07-24 09:42:15 Hollywood_Burns-Invaders-LP-2018-gF
2018-07-24 09:43:01 American.Pickers.S19E12.WEB.h264-TBS
2018-07-24 09:43:17 American.Pickers.S19E12.720p.WEB.h264-TBS
2018-07-24 09:43:19 Hugh_Masekela-Masekela_66-76-3CD-2018-gF
2018-07-24 09:43:44 Stephen.Colbert.2018.07.23.Eric.Holder.720p.WEB.x264-TBS
2018-07-24 09:44:04 Stephen.Colbert.2018.07.23.Eric.Holder.WEB.x264-TBS
2018-07-24 09:44:23 Hyperdontia-Abhorrence_Veil-VINYL-2017-gF
2018-07-24 09:44:43 Stephen.Colbert.2018.07.23.Eric.Holder.1080p.WEB.x264-TBS
2018-07-24 09:45:28 IAMJJ-Bloody_Future-2018-gF
2018-07-24 09:46:35 Joan_As_Police_Woman-Damned_Devotion-2018-gF
2018-07-24 09:47:40 Kaitlyn_Aurelia_Smith-The_Kid-2017-gF
2018-07-24 09:48:44 Karen_Elson-Double_Roses-2017-gF
2018-07-24 09:49:03 AIRHEART.Tales.of.Broken.Wings-PLAZA
2018-07-24 09:49:49 Kat_Frankie-Bad_Behaviour-2018-gF
2018-07-24 09:51:36 60.Days.In.-.Undercover.im.Knast.S04E15.GERMAN.DOKU.WS.dTV.x264-CDD
2018-07-24 09:53:22 Alaskan_Tapes-In_Distance_Were_Losing-WEB-2017-ENTiTLED
2018-07-24 09:53:52 BJNilsen-Massif_Trophies-WEB-2017-ENTiTLED
2018-07-24 09:54:23 DeCoda-Jane_Antonia_Cornish_Continuum-WEB-2015-ENTiTLED
2018-07-24 09:54:53 Efrim_Manuel_Menuck-Plays_High_Gospel-WEB-2011-ENTiTLED
2018-07-24 09:55:24 Elfin_Saddle-Wurld-WEB-2010-ENTiTLED
2018-07-24 09:55:58 Eus-Luminar-WEB-2016-ENTiTLED_iNT
2018-07-24 09:56:30 Glories-There_Is_No_Stillness-WEB-2017-ENTiTLED_iNT
2018-07-24 09:57:01 Heron-You_Are_Here_Now-WEB-2017-ENTiTLED
2018-07-24 09:57:30 Jane_Antonia_Cornish-Into_Silence-WEB-2017-ENTiTLED
2018-07-24 09:58:03 Kyle_Landstra-Within__Without-WEB-2018-ENTiTLED
2018-07-24 09:58:33 Mary_Lattimore-Terelan_Canyon-WEB-2016-ENTiTLED_iNT
2018-07-24 09:58:42 BangBros18.18.07.24.Alina.Lopez.XXX.1080p.MP4-KTR
2018-07-24 09:59:06 OverScan-Conscious-WEB-2015-ENTiTLED_iNT
2018-07-24 09:59:33 Simeon_Walker-Mono-WEB-2017-ENTiTLED
2018-07-24 10:00:07 Slow_Meadow-Those_Who_Rush_Across_the_Sea-WEB-2018-ENTiTLED
2018-07-24 10:00:36 Theo_Alexander-Broken_Access-WEB-2018-ENTiTLED
2018-07-24 10:00:51 Ketil_Bjoernstad-A_Passion_For_John_Donne-2014-gF
2018-07-24 10:01:08 Tired_Tape_Machine-Somewhere_Safe-WEB-2009-ENTiTLED_iNT
2018-07-24 10:01:20 WildOnCam.18.07.24.Skylar.Snow.XXX.1080p.MP4-KTR
2018-07-24 10:01:45 yadayn-Adem-WEB-2017-ENTiTLED_iNT
2018-07-24 10:04:34 Nubiles.net_18.07.24.Danni.Rivers.Dress.Up.XXX.IMAGESET-FuGLi
2018-07-24 10:05:05 Nubiles.net_18.07.24.Abbie.Asian.Sweetheart.XXX.IMAGESET-FuGLi
2018-07-24 10:08:57 BangBros18.18.07.24.Alina.Lopez.XXX.2160p.MP4-KTR
2018-07-24 10:10:41 Nubiles.net_18.07.24.Mia.Evans.Little.Miss.Mia.XXX.IMAGESET-FuGLi
2018-07-24 10:11:48 Nubiles.net_18.07.24.Nata.Ocean.Youthful.Little.Beauty.XXX.IMAGESET-FuGLi
2018-07-24 10:16:29 Kingdom.Hearts.HD.1.5.and.2.5.ReMIX.iNTERNAL.PS4-CUSA
2018-07-24 10:16:31 Kingdom.Hearts.HD.1.5.and.2.5.ReMIX.Patch.v1.04.iNTERNAL.PS4-CUSA
2018-07-24 10:19:05 John_Digweed_-_Transitions_725-SAT-07-22-2018-TALiON
2018-07-24 10:19:16 Study.of.Unusual.Forest.of.Secrets-PLAZA
2018-07-24 10:20:03 Chris_Liebing_-_AM.FM_176__Live_at_Cocorico_Club_(Italy)-SAT-07-22-2018-TALiON
2018-07-24 10:21:02 Robbie_Rivera_-_The_Juicy_Radio_Show_692-SAT-07-22-2018-TALiON
2018-07-24 10:22:02 Alan_Fitzpatrick_-_We_Are_The_Brave_013__Live_from_Sea_You_Festival_(Germany)-SAT-07-23-2018-TALiON
2018-07-24 10:23:03 Rene_LaVice_-_BBC_Radio1s_Drum_and_Bass_Show-SAT-07-24-2018-TALiON
2018-07-24 10:23:41 Brooklyn.Nine-Nine.S05E13.SPANiSH.1080p.HDTV.x264-FCC
2018-07-24 10:23:53 Brooklyn.Nine-Nine.S05E13.SPANiSH.720p.HDTV.x264-FCC
2018-07-24 10:24:07 Brooklyn.Nine-Nine.S05E13.SPANiSH.HDTV.x264-FCC
2018-07-24 10:24:18 Brooklyn.Nine-Nine.S05E14.SPANiSH.1080p.HDTV.x264-FCC
2018-07-24 10:24:27 Brooklyn.Nine-Nine.S05E14.SPANiSH.720p.HDTV.x264-FCC
2018-07-24 10:24:41 Brooklyn.Nine-Nine.S05E14.SPANiSH.HDTV.x264-FCC
2018-07-24 10:26:11 Ketil_Bjoernstad-Sanger_Om_Tilhoerighet-2016-gF
2018-07-24 10:27:08 Jesse_Futerman--Vista-(SOBO006S1)-WEB-2018-dh
2018-07-24 10:27:19 Lilly_Among_Clouds-Aerial_Perspective-2017-gF
2018-07-24 10:31:52 Lisa_Bassenge-Canyon_Songs-2015-gF
2018-07-24 10:32:55 Lord-Akarom_Ot-Tepett_Almok_(Csakis_A_Lenyeg)-VINYL-1986-gF
2018-07-24 10:33:59 Lychgate-The_Contagion_in_Nine_Steps-LP-2018-gF
2018-07-24 10:34:01 Emilia-Let_Me-(STORGARDS001)-WEB-2018-DJ
2018-07-24 10:34:26 Gar-Moon_-_Vogue-(MCG1277)-WEB-2018-DJ
2018-07-24 10:34:50 Misinki-The_Sequence-(505496_0813625)-WEB-2018-DJ
2018-07-24 10:35:06 Nora_Gomringer_And_Philipp_Scholz-Peng_Peng_Peng-DE-2017-gF
2018-07-24 10:35:13 Salvatore_Abate-Magic-(RM301)-WEB-2018-DJ
2018-07-24 10:38:28 Neuromanzer-Gottesfrucht_EP-(BET231)-WEB-2018-EBM
2018-07-24 10:38:59 Oruam_Zior-Antiques_Of_The_Unknown_EP-(DRE109)-WEB-2018-EBM
2018-07-24 10:39:41 James.Corden.2018.07.23.Dominic.Cooper.WEB.x264-TBS
2018-07-24 10:40:08 James.Corden.2018.07.23.Dominic.Cooper.720p.WEB.x264-TBS
2018-07-24 10:40:14 James.Corden.2018.07.23.Dominic.Cooper.1080p.WEB.x264-TBS
2018-07-24 10:40:42 From_First_To_Last-Surrender-SINGLE-WEB-2018-ENTiTLED
2018-07-24 10:40:50 PACKT.SEO.LINK.BUILDING.RANK.IN.GOOGLE.WITH.EDU.AND.GOV.BACKLINKS-JGTiSO
2018-07-24 10:41:06 LaCochonne.18.07.24.Clea.Gaultier.FRENCH.XXX.1080p.MP4-KTR
2018-07-24 10:42:21 PACKT.HANDS.ON.NLP.WITH.NLTK.AND.SCIKIT.LEARN-JGTiSO
2018-07-24 10:42:23 PACKT.HANDS.ON.ADMINISTRATION.WITH.JIRA.7-JGTiSO
2018-07-24 10:43:33 Satellite.RiP-DARKSiDERS
2018-07-24 10:43:35 Freiheit-Eternal_Youth-(ICDO080)-WEB-2018-EBM
2018-07-24 10:55:34 Adam.E.V.A.S02E05.DUTCH.720p.HDTV.x264-DTOD
2018-07-24 10:58:16 We.Zijn.Er.Bijna.S08E01.DUTCH.720p.HDTV.x264-DTOD
2018-07-24 11:03:50 American.Ninja.Warrior.S10E08.WEB.x264-TBS
2018-07-24 11:04:31 American.Ninja.Warrior.S10E08.720p.WEB.x264-TBS
2018-07-24 11:05:32 American.Ninja.Warrior.S10E08.1080p.WEB.x264-TBS
2018-07-24 11:20:51 Het.Italiaanse.Dorp.Ollolai.S01E06.DUTCH.720p.HDTV.x264-DTOD
2018-07-24 11:31:07 House.M.D.S02D02.MULTi.COMPLETE.BLURAY-RED
2018-07-24 11:34:01 The.Bachelorette.S14E09.WEB.x264-TBS
2018-07-24 11:34:07 The.Bachelorette.S14E09.720p.WEB.x264-TBS
2018-07-24 11:34:51 The.Proposal.S01E06.WEB.x264-TBS
2018-07-24 11:35:25 The.Proposal.S01E06.720p.WEB.x264-TBS
2018-07-24 11:35:56 Jimmy.Kimmel.2018.07.23.Justin.Theroux.WEB.x264-TBS
2018-07-24 11:36:23 Jimmy.Kimmel.2018.07.23.Justin.Theroux.720p.WEB.x264-TBS
2018-07-24 11:39:35 House.M.D.S02D03.MULTi.COMPLETE.BLURAY-RED
2018-07-24 11:43:06 VintageFlash.18.07.24.Bad.Dolly.All.Matching.XXX.1080p.MP4-KTR
2018-07-24 11:44:43 SPICY_CHOCOLATE-Shiritai-EP-WEB-JP-2018-TosK
2018-07-24 11:48:38 Bizaardvark.S03E01.720p.WEB.x264-TBS
2018-07-24 11:48:53 Bizaardvark.S03E01.WEB.x264-TBS
2018-07-24 11:51:02 Bug.Juice.My.Adventures.at.Camp.S01E06.720p.WEB.x264-TBS
2018-07-24 11:51:07 Bug.Juice.My.Adventures.at.Camp.S01E06.WEB.x264-TBS
2018-07-24 11:55:37 DCs.Legends.of.Tomorrow.S03E02.Der.Zirkus.der.wahren.Wunder.German.1080p.HDTV.x264-ATAX
2018-07-24 11:56:34 Westside.S04E03.720p.HDTV.x264-FiHTV
2018-07-24 12:00:30 Detached.Non.VR.Edition-PLAZA
2018-07-24 12:05:26 House.M.D.S02D04.MULTi.COMPLETE.BLURAY-RED
2018-07-24 12:06:44 House.M.D.S02D05.MULTi.COMPLETE.BLURAY-RED
2018-07-24 12:07:51 Bizarre.Foods.S20E03.Captain.Cook.and.The.Ancient.Hawaiians.720p.HDTV.x264-CRiMSON
2018-07-24 12:08:30 Bizarre.Foods.S20E03.Captain.Cook.and.The.Ancient.Hawaiians.HDTV.x264-CRiMSON
2018-07-24 12:09:32 The.Middle.S08E10.Der.Fluchtversuch.German.1080p.HDTV.x264-ATAX
2018-07-24 12:09:34 90.Day.Fiance.Happily.Ever.After.S03E11.Tell.All.Part.1.720p.HDTV.x264-CRiMSON
2018-07-24 12:10:06 90.Day.Fiance.Happily.Ever.After.S03E11.Tell.All.Part.1.HDTV.x264-CRiMSON
2018-07-24 12:11:13 Teen.Mom.S07E00.All.the.Times.Teen.Mom.Broke.the.Internet.720p.WEB.x264-TBS
2018-07-24 12:11:19 The.Middle.S08E10.Der.Fluchtversuch.German.720p.HDTV.x264-ATAX
2018-07-24 12:11:38 Teen.Mom.S07E00.All.the.Times.Teen.Mom.Broke.the.Internet.WEB.x264-TBS
2018-07-24 12:12:48 The.Middle.S08E10.Der.Fluchtversuch.German.HDTVRip.x264.iNTERNAL-ATAX
2018-07-24 12:13:41 Teen.Mom.S07E00.All.the.Times.Teen.Mom.Broke.the.Internet.1080p.WEB.x264-TBS
2018-07-24 12:15:50 Orquestra_Imperial-Fazendo_As_Pazes_Com_O_Swing-BR-2014-gF
2018-07-24 12:16:51 Packt.Deep.Learning.with.Python-GU2TC
2018-07-24 12:17:00 Packt.Machine.Learning.with.C.Plus.Plus-GU2TC
2018-07-24 12:18:10 Floribama.Shore.S02E03.1080p.WEB.x264-TBS
2018-07-24 12:18:55 Southern.Charm.Savannah.S02E02.1080p.WEB.x264-TBS
2018-07-24 12:19:55 Deadly.Rich.S01E03.WEB.x264-TBS
2018-07-24 12:20:22 Deadly.Rich.S01E03.720p.WEB.x264-TBS
2018-07-24 12:21:10 Deadly.Rich.S01E03.1080p.WEB.x264-TBS
2018-07-24 12:21:45 The.Real.Housewives.of.Orange.County.S13E02.WEB.x264-TBS
2018-07-24 12:22:19 The.Real.Housewives.of.Orange.County.S13E02.720p.WEB.x264-TBS
2018-07-24 12:23:06 The.Real.Housewives.of.Orange.County.S13E02.1080p.WEB.x264-TBS
2018-07-24 12:23:56 Watch.What.Happens.Live.2018.07.23.Bridget.Everett.and.Kelly.Dodd.720p.WEB.x264-TBS
2018-07-24 12:23:57 Watch.What.Happens.Live.2018.07.23.Bridget.Everett.and.Kelly.Dodd.1080p.WEB.x264-TBS
2018-07-24 12:24:19 Bedogne_And_Guazzotti-Ambient_Grooves-(3615932400575)-WEB-2018-NDE
2018-07-24 12:24:42 Watch.What.Happens.Live.2018.07.23.Bridget.Everett.and.Kelly.Dodd.WEB.x264-TBS
2018-07-24 12:24:58 Love.and.Hip.Hop.Hollywood.S05E01.1080p.WEB.x264-TBS
2018-07-24 12:25:18 Destination_Unknwn-The_New_Beginning-(657664709437)-WEB-2018-NDE
2018-07-24 12:26:57 Lakeside_Lebron-My_Island-(CAT226588)-WEB-2018-NDE
2018-07-24 12:27:47 Little_Girl-Outside-(K006)-WEB-2018-NDE
2018-07-24 12:27:56 Class.Dismissed.S02E08.Intruder.HDTV.x264-PLUTONiUM
2018-07-24 12:28:56 Michael_Wall-Quiet-(CAT224910)-WEB-2018-NDE
2018-07-24 12:29:44 Class.Dismissed.S02E08.Intruder.720p.HDTV.x264-PLUTONiUM
2018-07-24 12:30:43 PlayboyPlus.18.07.26.Vi.Shy.Seductive.Swim.XXX.1080p.MP4-KTR
2018-07-24 12:30:52 NEZ_BEATZ-Overload-(10139125)-WEB-2018-NDE
2018-07-24 12:31:22 Class.Dismissed.S02E08.Intruder.1080p.HDTV.h264-PLUTONiUM
2018-07-24 12:31:55 Panzerballett-Breaking_Brain-2015-gF
2018-07-24 12:32:16 Ricky_Sinz-Driven_Remixed-(DR2)-WEB-2018-NDE
2018-07-24 12:32:53 Dennis.And.Gnasher.Unleashed.S01E49.Get.Lost.1080p.HDTV.h264-PLUTONiUM
2018-07-24 12:33:10 Paolo_Angeli-Talea-2CD-2017-gF
2018-07-24 12:34:21 BreakingAsses.18.07.24.Diamond.Kitty.And.Vanessa.Lee.REMASTERED.XXX.1080p.MP4-KTR
2018-07-24 12:34:26 Perturbator-Night_Driving_Avenger-Remastered-VINYL-2015-gF
2018-07-24 12:34:29 House.Of.Anubis.S03E02.House.Of.Presents.HDTV.x264-PLUTONiUM
2018-07-24 12:34:50 Wolfenstein_II_The_New_Colossus_GERMAN_NSW-LaKiTu
2018-07-24 12:35:34 Perturbator-Sexualizer-Remastered-VINYL-2015-gF
2018-07-24 12:36:10 House.Of.Anubis.S03E02.House.Of.Presents.720p.HDTV.x264-PLUTONiUM
2018-07-24 12:36:45 Perturbator-The_Uncanny_Valley-3LP-2016-gF
2018-07-24 12:37:55 Protomartyr-Relatives_In_Descent-2017-gF
2018-07-24 12:38:28 House.Of.Anubis.S03E02.House.Of.Presents.1080p.HDTV.x264-PLUTONiUM
2018-07-24 12:39:07 Recast-1996-MCD-1996-gF
2018-07-24 12:40:11 VA-Drum_And_Bass__Liquid-(MY48668)-WEB-2018-NDE
2018-07-24 12:40:18 Renaud_Garcia-Fons-La_Vie_Devant_Soi-FR-2017-gF
2018-07-24 12:40:20 Police.Interceptors.S14E11.HDTV.x264-PLUTONiUM
2018-07-24 12:41:23 VA-Real_Story-(FR099TECH)-WEB-2018-NDE
2018-07-24 12:41:37 Richard_Bona_And_The_Mandekan_Cubano-Heritage-2016-gF
2018-07-24 12:42:41 Police.Interceptors.S14E11.720p.HDTV.x264-PLUTONiUM
2018-07-24 12:42:47 Rikard_Sjobloms_Gungfly-On_Her_Journey_To_The_Sun-Special_Edition-2CD-2017-gF
2018-07-24 12:43:28 Bongripper-Terminal-CD-2018-DGS
2018-07-24 12:43:57 Rockwell-Egy_Masik_Vilag-Utazas_Maryvel-VINYL-1981-gF
2018-07-24 12:44:09 VA-Sphereworld_Vol_10-(SR0010)-WEB-2018-NDE
2018-07-24 12:44:45 Chasm.Consulting.VentSim.Premium.Design.v5.0.8.0-AMPED
2018-07-24 12:45:00 Card.Captor.Sakura.E13.FRENCH.720p.BluRay.x264-KAZETV
2018-07-24 12:45:11 San_Ul_Lim-The_Second-KR-Bootleg-LP-2015-gF
2018-07-24 12:46:05 VA-Summer_Surf_House_Music-(10139015)-WEB-2018-NDE
2018-07-24 12:46:24 Schnipo_Schranke-Rare-DE-2017-gF
2018-07-24 12:46:27 Police.Interceptors.S14E11.1080p.HDTV.x264-PLUTONiUM
2018-07-24 12:46:33 Card.Captor.Sakura.E13.MULTi.1080p.BluRay.x264-KAZETV
2018-07-24 12:47:22 Card.Captor.Sakura.E13.SUBFRENCH.720p.BluRay.x264-KAZETV
2018-07-24 12:47:31 Szeptember-Lord-Interpop_Fesztival_86_Siofok-VINYL-1986-gF
2018-07-24 12:48:11 Card.Captor.Sakura.E14.FRENCH.720p.BluRay.x264-KAZETV
2018-07-24 12:48:39 The_Psycho_Season-EP_2012-CDREP-2012-gF
2018-07-24 12:49:34 Card.Captor.Sakura.E14.MULTi.1080p.BluRay.x264-KAZETV
2018-07-24 12:49:50 Tigran_Hamasyan_Arve_Hendriksen_Elvind_Aarset_Jan_Bang-Athmospheres-2CD-2016-gF
2018-07-24 12:50:24 Card.Captor.Sakura.E14.SUBFRENCH.720p.BluRay.x264-KAZETV
2018-07-24 12:50:57 Time-Taa_Tahti-FI-VINYL-1986-gF
2018-07-24 12:51:16 Card.Captor.Sakura.E15.FRENCH.720p.BluRay.x264-KAZETV
2018-07-24 12:52:06 Tingvall_Trio-Cirklar-2017-gF
2018-07-24 12:52:30 Adam.E.V.A.S02E05.DUTCH.1080p.HDTV.x264-DTOD
2018-07-24 12:52:40 Card.Captor.Sakura.E15.MULTi.1080p.BluRay.x264-KAZETV
2018-07-24 12:53:14 Tobias_Christl-Wildern-2014-gF
2018-07-24 12:53:28 Card.Captor.Sakura.E15.SUBFRENCH.720p.BluRay.x264-KAZETV
2018-07-24 12:53:45 Die.PS.Profis.-.Im.Einsatz.S02E05.3er.Tuning.German.DOKU.1080p.HDTV.x264-ATAX
2018-07-24 12:54:19 Card.Captor.Sakura.E16.FRENCH.720p.BluRay.x264-KAZETV
2018-07-24 12:54:22 Tomasz_Stanko_New_York_Quartet-December_Avenue-2017-gF
2018-07-24 12:55:31 Unborn_Generation-Straitjacket_Dance-CDR-2006-gF
2018-07-24 12:55:48 Card.Captor.Sakura.E16.MULTi.1080p.BluRay.x264-KAZETV
2018-07-24 12:56:37 Card.Captor.Sakura.E16.SUBFRENCH.720p.BluRay.x264-KAZETV
2018-07-24 12:56:41 VA-Jazz_At_Berlin_Philharmonic_VII_Piano_Night-2017-gF
2018-07-24 12:56:51 Die.PS.Profis.-.Im.Einsatz.S02E05.3er.Tuning.German.DOKU.720p.HDTV.x264-ATAX
2018-07-24 12:57:29 Card.Captor.Sakura.E17.FRENCH.720p.BluRay.x264-KAZETV
2018-07-24 12:57:50 VA-Modernism-2016-gF
2018-07-24 12:58:49 Card.Captor.Sakura.E17.MULTi.1080p.BluRay.x264-KAZETV
2018-07-24 12:59:06 Die.PS.Profis.-.Im.Einsatz.S02E05.3er.Tuning.German.DOKU.HDTVRip.x264-ATAX
2018-07-24 12:59:15 VA-Mod_The_Early_Years-4CD-CD-2014-gF
2018-07-24 12:59:42 Card.Captor.Sakura.E17.SUBFRENCH.720p.BluRay.x264-KAZETV
2018-07-24 13:00:24 VA-MOJO_Presents_Green_Leaves_-_Nick_Drake_Covered-(Issue292)-MAG-2018-gF
2018-07-24 13:00:33 Card.Captor.Sakura.E18.FRENCH.720p.BluRay.x264-KAZETV
2018-07-24 13:01:55 Card.Captor.Sakura.E18.MULTi.1080p.BluRay.x264-KAZETV
2018-07-24 13:02:43 Card.Captor.Sakura.E18.SUBFRENCH.720p.BluRay.x264-KAZETV
2018-07-24 13:03:36 Card.Captor.Sakura.E19.FRENCH.720p.BluRay.x264-KAZETV
2018-07-24 13:04:58 Card.Captor.Sakura.E19.MULTi.1080p.BluRay.x264-KAZETV
2018-07-24 13:05:51 Card.Captor.Sakura.E19.SUBFRENCH.720p.BluRay.x264-KAZETV
2018-07-24 13:06:46 Card.Captor.Sakura.E20.FRENCH.720p.BluRay.x264-KAZETV
2018-07-24 13:08:05 Card.Captor.Sakura.E20.MULTi.1080p.BluRay.x264-KAZETV
2018-07-24 13:09:01 Card.Captor.Sakura.E20.SUBFRENCH.720p.BluRay.x264-KAZETV
2018-07-24 13:09:49 Card.Captor.Sakura.E21.FRENCH.720p.BluRay.x264-KAZETV
2018-07-24 13:11:11 Card.Captor.Sakura.E21.MULTi.1080p.BluRay.x264-KAZETV
2018-07-24 13:11:59 Card.Captor.Sakura.E21.SUBFRENCH.720p.BluRay.x264-KAZETV
2018-07-24 13:12:52 Card.Captor.Sakura.E22.FRENCH.720p.BluRay.x264-KAZETV
2018-07-24 13:14:20 Card.Captor.Sakura.E22.MULTi.1080p.BluRay.x264-KAZETV
2018-07-24 13:14:23 Fushigi_no_Gensoukyou_TOD_Reloaded_JPN_NSW-HR
2018-07-24 13:15:13 Card.Captor.Sakura.E22.SUBFRENCH.720p.BluRay.x264-KAZETV
2018-07-24 13:15:59 Card.Captor.Sakura.E23.FRENCH.720p.BluRay.x264-KAZETV
2018-07-24 13:17:27 Card.Captor.Sakura.E23.MULTi.1080p.BluRay.x264-KAZETV
2018-07-24 13:17:48 Jimmy.Fallon.2018.07.23.Tom.Cruise.WEB.x264-TBS
2018-07-24 13:18:07 Jimmy.Fallon.2018.07.23.Tom.Cruise.720p.WEB.x264-TBS
2018-07-24 13:18:15 Card.Captor.Sakura.E23.SUBFRENCH.720p.BluRay.x264-KAZETV
2018-07-24 13:18:33 Jimmy.Fallon.2018.07.23.Tom.Cruise.1080p.WEB.x264-TBS
2018-07-24 13:19:07 Card.Captor.Sakura.E24.FRENCH.720p.BluRay.x264-KAZETV
2018-07-24 13:20:30 Card.Captor.Sakura.E24.MULTi.1080p.BluRay.x264-KAZETV
2018-07-24 13:21:12 Boris_Zhivago-Love_In_Russia-CD-2014-FWYH
2018-07-24 13:21:27 Card.Captor.Sakura.E24.SUBFRENCH.720p.BluRay.x264-KAZETV
2018-07-24 13:21:43 Boris_Zhivago-The_Last_Goodbye-CD-Limited_Edition-2013-FWYH
2018-07-24 13:22:53 Juno_Reactor-The_Mutant_Theatre-CD-2018-FWYH
2018-07-24 13:23:14 Card.Captor.Sakura.VOL02.MULTi.BDRip.x264-KAZETV
2018-07-24 13:23:35 Slepice.na.smetane.1978.CZECH.PDTV.x264-I_KnoW
2018-07-24 13:30:47 Dernier.Voyage.Vers.Saturne.2017.DOC.FRENCH.720p.WEB.h264-LaoZi
2018-07-24 13:32:36 Jimmy.Fallon.2018.07.23.Tom.Cruise.720p.HDTV.x264-SORNY
2018-07-24 13:32:39 Le.Grand.Mystere.Des.Mathematiques.2015.DOC.FRENCH.720p.WEB.h264-LaoZi
2018-07-24 13:34:30 Pesticide.Et.Sante.L.Equation.Sans.Solution.2015.DOC.FRENCH.720p.WEB.h264-LaoZi
2018-07-24 13:36:23 Sexe.Et.Amour.3.0.2017.DOC.FRENCH.720p.WEB.h264-LaoZi
2018-07-24 13:41:37 Chelsea.FC.Season.Review.2017-18.2018.1080p.BluRay.x264-GHOULS
2018-07-24 13:47:10 Chelsea.FC.Season.Review.2017-18.2018.720p.BluRay.x264-GHOULS
2018-07-24 13:48:52 Seth.Meyers.2018.07.23.Andy.Cohen.720p.WEB.x264-TBS
2018-07-24 13:49:09 Seth.Meyers.2018.07.23.Andy.Cohen.WEB.x264-TBS
2018-07-24 13:49:22 Seth.Meyers.2018.07.23.Andy.Cohen.1080p.WEB.x264-TBS
2018-07-24 13:51:16 Bear.vs.Sharks.-.Ausgesetzt.im.Bermuda.Dreieck.GERMAN.DOKU.720p.HDTV.x264-CDD
2018-07-24 13:52:00 Chelsea.FC.Season.Review.2017-18.2018.BDRip.x264-GHOULS
2018-07-24 14:04:02 Unapologetic.With.Aisha.Tyler.S01E08.HDTV.x264-aAF
2018-07-24 14:06:30 The.Touch.1971.COMPLETE.BLURAY-VEXHD
2018-07-24 14:10:31 Packt.Mathematical.Foundation.for.AI.and.Machine.Learning-XQZT
2018-07-24 14:12:16 Unapologetic.With.Aisha.Tyler.S01E08.720p.HDTV.x264-aAF
2018-07-24 14:13:22 Het.Italiaanse.Dorp.Ollolai.S01E06.DUTCH.1080p.HDTV.x264-DTOD
2018-07-24 14:19:40 We.Zijn.Er.Bijna.S08E01.DUTCH.1080p.HDTV.x264-DTOD
2018-07-24 14:21:27 Packt.Video.SEO.Rank.Higher.in.Google.and.YouTube-ZH
2018-07-24 14:27:22 The.Case.Of.The.Scorpions.Tail.1971.COMPLETE.BLURAY-VEXHD
2018-07-24 14:28:27 Packt.The.7.Phases.and.33.Building.Blocks.of.Every.Sales.Funnel-ZH
2018-07-24 14:29:23 Lynda.Python.Basics.Java.Developers-SHEPHERDS
2018-07-24 14:30:36 Lynda.SharePoint.Online.Managing.Project.Sites-SHEPHERDS
2018-07-24 14:31:51 Lynda.Vanilla.JavaScript.Client.Side.Data.Storage-SHEPHERDS
2018-07-24 14:33:15 Lynda.Photoshop.Advanced.Adjustment.Layer.Blend.Modes-SHEPHERDS
2018-07-24 14:34:19 Seven_Shots_From_Sober-Robots_Cant_Drink_Like_Us-2018-FNT
2018-07-24 14:36:30 Dispatches.2018.07.23.Homeless.and.Working.720p.HDTV.X264-DEADPOOL
2018-07-24 14:36:38 Smitt_E._Smitty-Just_A_Modern_Guy-2018-FNT
2018-07-24 14:36:46 Dispatches.2018.07.23.Homeless.and.Working.HDTV.X264-DEADPOOL
2018-07-24 14:36:51 Panorama.2018.07.23.The.Fake.Murder.That.Fooled.The.World.720p.HDTV.X264-DEADPOOL
2018-07-24 14:37:01 Panorama.2018.07.23.The.Fake.Murder.That.Fooled.The.World.HDTV.X264-DEADPOOL
2018-07-24 14:37:12 When.Trump.Came.To.Town-Inside.The.American.Embassy.2018.720p.HDTV.X264-CREED
2018-07-24 14:37:20 When.Trump.Came.To.Town-Inside.The.American.Embassy.2018.HDTV.X264-CREED
2018-07-24 14:37:24 Dave_Neabore-Lucio_Fulcis_Zombie_Fulcis_Inferno-CD-2018-CRUELTY
2018-07-24 14:37:53 Dietland.S01E09.FRENCH.WEBRip.x264-AMB3R
2018-07-24 14:38:15 Dave_Neabore-Lucio_Fulcis_Zombie_Fulcis_Inferno-CD-FLAC-2018-CRUELTY
2018-07-24 14:44:24 Monique.1969.INTERNAL.PDTV.X264-DEADPOOL
2018-07-24 14:47:25 Shaadi.Ke.Side.Effects.2014.COMPLETE.BLURAY-VEXHD
2018-07-24 14:53:05 60.Minutes.S50E46.PROPER.720p.WEB.x264-KLINGON
2018-07-24 14:54:15 60.Minutes.S50E46.PROPER.1080p.WEB.x264-KLINGON
2018-07-24 14:54:17 Packt.A.Beginners.Guide.to.R.Programming-XQZT
2018-07-24 14:54:51 KR-A_Linterieur-WEB-FR-2018-AZF
2018-07-24 14:55:31 60.Minutes.S50E46.PROPER.WEB.x264-CROSSFIT
2018-07-24 14:56:01 Novia-Devenir_Quelquun-WEB-FR-2018-AZF
2018-07-24 14:56:18 VA-Press_Play-WEB-FR-2018-AZF
2018-07-24 14:59:42 Mt_Et_Delpi-Bloques_En_Bas-SINGLE-WEB-FR-2018-AZF
2018-07-24 15:03:35 VA-The_Rough_Guide_To_Blues_Women_Reborn_And-Remastered-2016-gF
2018-07-24 15:04:42 Ward-Ward-LP-2013-gF
2018-07-24 15:05:47 Wolvhammer-The_Monuments_of_Ash_and_Bone-LP-2018-gF
2018-07-24 15:06:31 AngelicVibes.So.Soulful.MULTiFORMAT-MASCHiNE
2018-07-24 15:06:52 Zorall-Retrograd-HU-2016-gF
2018-07-24 15:07:45 AngelicVibes.Vxsions.MULTiFORMAT-MASCHiNE
2018-07-24 15:08:01 Master_Boot_Record-Direct_Memory_Access-LP-2018-gF_INT
2018-07-24 15:08:52 AngelicVibes.Winter.Breeze.MULTiFORMAT-MASCHiNE
2018-07-24 15:09:06 Moby_Dick-Kegyetlen_Evek-Reissue-2016-gF_INT
2018-07-24 15:10:10 Perturbator-Nocturne_City-Remastered-VINYL-2015-gF_INT
2018-07-24 15:11:13 Perturbator-The_New_Model-VINYL-2017-gF_INT
2018-07-24 15:12:50 Hetty.Feather.S04E07.720p.HDTV.X264-DEADPOOL
2018-07-24 15:13:03 Hetty.Feather.S04E08.720p.HDTV.X264-DEADPOOL
2018-07-24 15:13:13 Hetty.Feather.S04E09.720p.HDTV.X264-DEADPOOL
2018-07-24 15:13:28 Hetty.Feather.S04E10.720p.HDTV.X264-DEADPOOL
2018-07-24 15:13:39 Hetty.Feather.S04E07.HDTV.X264-DEADPOOL
2018-07-24 15:13:48 Hetty.Feather.S04E08.HDTV.X264-DEADPOOL
2018-07-24 15:13:59 Hetty.Feather.S04E09.HDTV.X264-DEADPOOL
2018-07-24 15:14:07 Hetty.Feather.S04E10.HDTV.X264-DEADPOOL
2018-07-24 15:15:42 Maurice_Caron-What_You_Should_Have_Said-WEB-2018-AFO
2018-07-24 15:16:37 Lost_Station-Turning_Back-WEB-2018-AFO
2018-07-24 15:20:26 Cardios_Then_33-Humble_Ground-WEB-2018-AFO
2018-07-24 15:25:17 Methodub-The_Pearl_Bay-WEB-2018-AFO
2018-07-24 15:25:55 Mollys.Game.2017.PL.BDRip.x264-FLAME
2018-07-24 15:26:43 Mechanical_Fusion-Mechanum-WEB-2018-AFO
2018-07-24 15:27:38 Mollys.Game.2017.PL.DUAL.720p.BluRay.x264-FLAME
2018-07-24 15:28:11 Mollys.Game.2017.PL.DUAL.1080p.BluRay.x264-FLAME
2018-07-24 15:28:40 Teen.Mom.2.S08E30.720p.WEB.x264-TBS
2018-07-24 15:29:52 Teen.Mom.2.S08E30.1080p.WEB.x264-TBS
2018-07-24 15:36:27 The.Fairly.OddParents.S07E01.SWEDiSH.720p.WEB.x264-SAAB
2018-07-24 15:36:51 Mono_Electric_Orchestra-Louder_Than_Silence-WEB-2018-AFO
2018-07-24 15:37:59 The.Fairly.OddParents.S07E01.SWEDiSH.1080p.WEB.x264-SAAB
2018-07-24 15:41:51 Night_Verses-From_the_Gallery_of_Sleep-2018-FKK
2018-07-24 15:57:36 Horny.Fighter-PLAZA
2018-07-24 15:58:17 AIRHEART.Tales.of.Broken.Wings.RIP-SiMPLEX
2018-07-24 15:59:34 AIRHEART.Tales.of.Broken.Wings.RIP.MUSIC.ADDON-SiMPLEX
2018-07-24 16:32:34 Bee.Movie.2007.iNTERNAL.FiNNiSH.1080p.BluRay.x264-VALKOKANGAS
2018-07-24 16:34:04 Closed_Nightmare_JPN_NSW-HR
2018-07-24 16:48:41 Facelift_Deformation-Dominating_The_Extermination-CD-2018-DiTCH
2018-07-24 16:53:03 A.Star.Is.Born.1937.1080p.BluRay.x264-REGRET
2018-07-24 16:59:54 Unapologetic.with.Aisha.Tyler.S01E08.1080p.WEB.h264-TBS
2018-07-24 17:03:00 A.Star.Is.Born.1937.iNTERNAL.BDRip.x264-REGRET
2018-07-24 17:12:40 Alice.Munro.-.Runaway.2007.Retail.EPUB.eBook-BitBook
2018-07-24 17:13:00 A.Star.Is.Born.1937.PROPER.iNTERNAL.720p.BluRay.x264-REGRET
2018-07-24 17:13:30 Andrew.M.Butler.-.Philip.K.Dick.2012.Retail.EPUB.eBook-BitBook
2018-07-24 17:14:14 Barbara.Kingsolver.-.Homeland.And.Other.Stories.2009.Retail.EPUB.eBook-BitBook
2018-07-24 17:15:01 Bret.Easton.Ellis.-.American.Psycho.2010.Retail.EPUB.eBook-BitBook
2018-07-24 17:15:46 Bret.Easton.Ellis.-.Glamorama.2010.Retail.EPUB.eBook-BitBook
2018-07-24 17:16:04 DaneJones.18.07.24.Luna.Corazon.XXX.1080p.MP4-KTR
2018-07-24 17:16:32 Bret.Easton.Ellis.-.The.Informers.2010.Retail.EPUB.eBook-BitBook
2018-07-24 17:17:22 Brom.-.Lost.Gods.2016.Retail.EPUB.eBook-BitBook
2018-07-24 17:18:02 Christopher.Reich.-.Numbered.Account.1999.Retail.EPUB.eBook-BitBook
2018-07-24 17:18:51 David.Sedaris.-.Children.Playing.Before.A.Statue.Of.Hercules.2005.Retail.EPUB.eBook-BitBook
2018-07-24 17:19:34 David.Sedaris.-.Me.Talk.Pretty.One.Day.2009.Retail.EPUB.eBook-BitBook
2018-07-24 17:20:15 David.Sedaris.-.Naked.2009.Retail.EPUB.eBook-BitBook
2018-07-24 17:21:05 David.Sedaris.-.Squirrel.Seeks.Chipmunk.2010.Retail.EPUB.eBook-BitBook
2018-07-24 17:21:14 MeloneChallenge.18.07.24.Wendy.Moon.Professional.Nervousness.XXX.1080p.MP4-KTR
2018-07-24 17:21:48 David.Sedaris.-.When.You.Are.Engulfed.In.Flames.2008.Retail.EPUB.eBook-BitBook
2018-07-24 17:22:47 Captain.Kidds.Treasure.1938.DSR.x264-REGRET
2018-07-24 17:23:02 MeloneChallenge.18.07.24.Wendy.Moon.Professional.Nervousness.XXX.2160p.MP4-KTR
2018-07-24 17:23:19 Douglas.Adams.-.Dirk.Gently.s.Holistic.Detective.Agency.2014.Retail.EPUB.eBook-BitBook
2018-07-24 17:24:06 Douglas.Adams.-.Mostly.Harmless.2009.Retail.EPUB.eBook-BitBook
2018-07-24 17:24:20 The_End-Razor1911
2018-07-24 17:24:52 Douglas.Adams.-.The.Deeper.Meaning.Of.Liff.2005.Retail.EPUB.eBook-BitBook
2018-07-24 17:25:36 Douglas.Adams.-.The.Restaurant.At.The.End.Of.The.Universe.2008.Retail.EPUB.eBook-BitBook
2018-07-24 17:26:18 Flatiron.Books.-.The.History.Of.Rock.Roll.Volume.1.2016.Retail.EPUB.eBook-BitBook
2018-07-24 17:26:55 Slyker_and_Psytee_-_The_Mask_(Slyker_Remix)-(MLRPSY0102)-WEB-2018-ZzZz
2018-07-24 17:27:02 Helen.Macdonald.-.H.Is.For.Hawk.2015.Retail.EPUB.eBook-BitBook
2018-07-24 17:27:04 MonsterCurves.18.07.24.Daisy.Stone.Fresh.Ass.Daisy.XXX.1080p.MP4-KTR
2018-07-24 17:27:45 James.Ellroy.-.American.Tabloid.2011.Retail.EPUB.eBook-BitBook
2018-07-24 17:28:30 James.Sallis.-.Drive.2011.Retail.EPUB.eBook-BitBook
2018-07-24 17:28:38 Dark_Templars_-_Beatparade-(MLRHS001)-WEB-2018-ZzZz
2018-07-24 17:29:14 Jesse.Ball.-.A.Cure.For.Suicide.2015.Retail.EPUB.eBook-BitBook
2018-07-24 17:29:15 WeLiveTogether.18.07.24.Alex.Blake.And.Marley.Brinx.Corrupted.In.The.Sex.Shop.XXX.1080p.MP4-KTR
2018-07-24 17:30:02 Jill.Bialosky.-.The.Prize.2015.Retail.EPUB.eBook-BitBook
2018-07-24 17:30:09 Bootmasters_-_Freak_(Visioneight_Remix)-(MLRH037)-WEB-2018-ZzZz
2018-07-24 17:30:48 Joan.Didion.-.Salvador.2011.Retail.EPUB.eBook-BitBook
2018-07-24 17:31:30 Jonathan.Gould.-.Otis.Redding.2017.Retail.EPUB.eBook-BitBook
2018-07-24 17:31:38 Dateline.NBC.2018.07.23.A.Good.Son.1080p.WEB.x264-CAFFEiNE
2018-07-24 17:32:02 Dateline.NBC.2018.07.23.A.Good.Son.720p.WEB.x264-CAFFEiNE
2018-07-24 17:32:18 Jonathan.Kellerman.-.The.Conspiracy.Club.2003.Retail.EPUB.eBook-BitBook
2018-07-24 17:32:26 Dateline.NBC.2018.07.23.A.Good.Son.WEB.x264-CAFFEiNE
2018-07-24 17:32:48 David.and.Bathsheba.1951.FRENCH.DVDRip.x264-REGRET
2018-07-24 17:33:01 Joseph.Wambaugh.-.Hollywood.Hills.2011.Retail.EPUB.eBook-BitBook
2018-07-24 17:33:46 Leah.Stewart.-.The.New.Neighbor.2015.Retail.EPUB.eBook-BitBook
2018-07-24 17:34:27 Lucia.Berlin.-.A.Manual.For.Cleaning.Women.2015.Retail.EPUB.eBook-BitBook
2018-07-24 17:35:11 Luke.McCallin.-.The.Pale.House.2015.Retail.EPUB.eBook-BitBook
2018-07-24 17:36:00 Marcie.Walsh.-.The.Killing.Club.2005.Retail.eBook-BitBook
2018-07-24 17:36:40 Mario.Vargas.Llosa.-.Death.In.The.Andes.2007.Retail.EPUB.eBook-BitBook
2018-07-24 17:37:27 Mario.Vargas.Llosa.-.The.Discreet.Hero.2015.Retail.EPUB.eBook-BitBook
2018-07-24 17:38:12 Mario.Vargas.Llosa.-.The.Neighborhood.2018.Retail.EPUB.eBook-BitBook
2018-07-24 17:38:44 PublicAgent.18.07.24.Jade.Presley.XXX.1080p.MP4-KTR
2018-07-24 17:38:51 Mario.Vargas.Llosa.-.The.Storyteller.2001.Retail.EPUB.eBook-BitBook
2018-07-24 17:39:38 Mario.Vargas.Llosa.-.The.War.Of.The.End.Of.The.World.2008.Retail.EPUB.eBook-BitBook
2018-07-24 17:40:19 Martin.Amis.-.Night.Train.2011.Retail.EPUB.eBook-BitBook
2018-07-24 17:41:04 Max.Decharne.-.A.Rocket.In.My.Pocket.2010.Retail.EPUB.eBook-BitBook
2018-07-24 17:41:54 Michael.Farris.Smith.-.Desperation.Road.2017.Retail.EPUB.eBook-BitBook
2018-07-24 17:42:39 Michael.Malone.-.Foolscap.2010.Retail.EPUB.eBook-BitBook
2018-07-24 17:43:31 Michael.Malone.-.Handling.Sin.2010.Retail.EPUB.eBook-BitBook
2018-07-24 17:44:11 Michael.Malone.-.The.Four.Corners.Of.The.Sky.2010.Retail.EPUB.eBook-BitBook
2018-07-24 17:45:42 Oldcastle.Books.-.Samurai.Films.2010.Retail.EPUB.eBook-BitBook
2018-07-24 17:46:26 Oreilly.-.Learning.Web.Design.2018.5th.Edition.Retail.EPUB.eBook-BitBook
2018-07-24 17:47:09 Ottessa.Moshfegh.-.Eileen.2015.Retail.EPUB.eBook-BitBook
2018-07-24 17:47:50 Packt.-.Analytics.For.The.Internet.Of.Things.IoT.2017.Retail.EPUB.eBook-BitBook
2018-07-24 17:48:08 Major_Tosh_and_Bootmasters_-_Wonderland_(Major_Tosh_Club_Mix)-(MLRH014)-WEB-2015-ZzZz
2018-07-24 17:48:37 Packt.-.Python.Data.Analytics.And.Visualization.2017.Retail.EPUB.eBook-BitBook
2018-07-24 17:48:58 Orkidea-Transmission_At_Airbeat_One_Festival-WEB-2018-XTC_iNT
2018-07-24 17:49:21 Peter.Nadas.-.Parallel.Stories.2011.Retail.EPUB.eBook-BitBook
2018-07-24 17:49:47 Major_Tosh_and_Bootmasters_-_Wonderland_(DJ_Mismatch_Remix)-(MLRH016)-WEB-2015-ZzZz
2018-07-24 17:50:01 Ralph.Ellison.-.Invisible.Man.2010.Retail.EPUB.eBook-BitBook
2018-07-24 17:50:52 Samuel.K.Dolan.-.Cowboys.And.Gangsters.2016.Retail.EPUB.eBook-BitBook
2018-07-24 17:51:12 Marlo-Transmission_At_Airbeat_One_Festival-WEB-2018-XTC_iNT
2018-07-24 17:51:32 Santiago.Gamboa.-.Necropolis.2012.Retail.EPUB.eBook-BitBook
2018-07-24 17:52:02 Major_Tosh_and_Bootmasters_-_Wonderland_(DJ_Marjanski_and_Tony_Brown_Remix)-(MLRH017)-WEB-2015-ZzZz
2018-07-24 17:52:14 Thomas.Olde.Heuvelt.-.HEX.2016.Retail.EPUB.eBook-BitBook
2018-07-24 17:52:34 David.and.Bathsheba.1951.LATiN.SPANiSH.DVDRip.x264-REGRET
2018-07-24 17:52:37 Direct.Talk.2018.07.23.Yuuki.Watanabe.1080p.HDTV.x264-DARKFLiX
2018-07-24 17:53:01 Tony.Brown.-.Elvis.Strait.To.Jesus.2018.Retail.EPUB.eBook-BitBook
2018-07-24 17:53:16 Driftmoon-Transmission_At_Airbeat_One_Festival-WEB-2018-XTC_iNT
2018-07-24 17:53:25 Direct.Talk.2018.07.23.Yuuki.Watanabe.720p.HDTV.x264-DARKFLiX
2018-07-24 17:53:44 Wiley.-.Mastering.AutoCAD.2019.And.AutoCAD.LT.2019.2018.Retail.EPUB.eBook-BitBook
2018-07-24 17:54:09 Direct.Talk.2018.07.23.Yuuki.Watanabe.HDTV.x264-DARKFLiX
2018-07-24 17:54:27 Major_Tosh_and_Bootmasters_-_Wonderland_(Andy_LaToggo_Remix)-(MLRH015)-WEB-2015-ZzZz
2018-07-24 17:54:28 William.W.Johnstone.-.Rockabilly.Limbo.2016.Retail.EPUB.eBook-BitBook
2018-07-24 17:54:57 Direct.Talk.2018.07.24.Shuhei.Hasado.1080p.HDTV.x264-DARKFLiX
2018-07-24 17:55:08 Yan.Lianke.-.Dream.Of.Ding.Village.2011.Retail.EPUB.eBook-BitBook
2018-07-24 17:55:16 Stoneface_And_Terminal-Transmission_At_Airbeat_One_Festival-WEB-2018-XTC_iNT
2018-07-24 17:55:43 Direct.Talk.2018.07.24.Shuhei.Hasado.720p.HDTV.x264-DARKFLiX
2018-07-24 17:55:57 Yan.Lianke.-.Lenin.s.Kisses.2012.Retail.EPUB.eBook-BitBook
2018-07-24 17:56:30 Direct.Talk.2018.07.24.Shuhei.Hasado.HDTV.x264-DARKFLiX
2018-07-24 17:56:36 Yan.Lianke.-.The.Explosion.Chronicles.2016.Retail.EPUB.eBook-BitBook
2018-07-24 17:57:12 Beartooth-Bad_Listener-SINGLE-WEB-2018-ENTiTLED
2018-07-24 17:57:18 Document.72.Hours.S06E11.The.Traveling.Library.Truck.1080p.HDTV.x264-DARKFLiX
2018-07-24 17:57:23 Yan.Lianke.-.The.Four.Books.2015.Retail.EPUB.eBook-BitBook
2018-07-24 17:57:43 Beartooth-Disease-SINGLE-WEB-2018-ENTiTLED
2018-07-24 17:58:01 Document.72.Hours.S06E11.The.Traveling.Library.Truck.720p.HDTV.x264-DARKFLiX
2018-07-24 17:58:06 Zsuzsi.Gartner.-.All.The.Anxious.Girls.On.Earth.2010.Retail.EPUB.eBook-BitBook
2018-07-24 17:58:47 Document.72.Hours.S06E11.The.Traveling.Library.Truck.HDTV.x264-DARKFLiX
2018-07-24 17:58:50 Zsuzsi.Gartner.-.Better.Living.Through.Plastic.Explosives.2011.Retail.EPUB.eBook-BitBook
2018-07-24 17:59:25 Major_Tosh_and_Bootmasters_-_Wonderland-(MLRH014)-WEB-2015-ZzZz
2018-07-24 17:59:32 SUPER8_And_TAB-Transmission_At_Airbeat_One_Festival-WEB-2018-XTC_iNT
2018-07-24 17:59:33 J-Trip.Plan.S02E04.A.3.Day.Trip.Around.Tokyos.Neighboring.Prefectures.1080p.HDTV.x264-DARKFLiX
2018-07-24 18:00:19 J-Trip.Plan.S02E04.A.3.Day.Trip.Around.Tokyos.Neighboring.Prefectures.720p.HDTV.x264-DARKFLiX
2018-07-24 18:01:06 J-Trip.Plan.S02E04.A.3.Day.Trip.Around.Tokyos.Neighboring.Prefectures.HDTV.x264-DARKFLiX
2018-07-24 18:01:50 Journeys.In.Japan.S02E02.Goto.Islands.Nagasaki.1080p.HDTV.x264-DARKFLiX
2018-07-24 18:02:27 Life.with.Father.1947.REMASTERED.PDTV.x264-REGRET
2018-07-24 18:02:32 Bootmasters_feat_Trevor_Jackson_-_This_Day-(MLRH019)-WEB-2015-ZzZz
2018-07-24 18:02:35 Journeys.In.Japan.S02E02.Goto.Islands.Nagasaki.720p.HDTV.x264-DARKFLiX
2018-07-24 18:02:43 House.Hunters.S151E06.Austin.Turnkey.vs.Fixer-Upper.1080p.WEB.h264-CAFFEiNE
2018-07-24 18:02:47 House.Hunters.S151E06.Austin.Turnkey.vs.Fixer-Upper.WEB.h264-CAFFEiNE
2018-07-24 18:02:55 Markus_Schulz-Transmission_At_Airbeat_One_Festival-WEB-2018-XTC_iNT
2018-07-24 18:03:22 Journeys.In.Japan.S02E02.Goto.Islands.Nagasaki.HDTV.x264-DARKFLiX
2018-07-24 18:04:07 Medical.Frontiers.S03E30.Communication.Robots.And.Elderly.Care.1080p.HDTV.x264-DARKFLiX
2018-07-24 18:04:54 Medical.Frontiers.S03E30.Communication.Robots.And.Elderly.Care.720p.HDTV.x264-DARKFLiX
2018-07-24 18:05:34 4M.IDEA.Architecture.v19.X64-AMPED
2018-07-24 18:05:42 Medical.Frontiers.S03E30.Communication.Robots.And.Elderly.Care.HDTV.x264-DARKFLiX
2018-07-24 18:08:56 Bootmasters_feat_Trevor_Jackson_-_Last_Summer-(10103428)-WEB-2016-ZzZz
2018-07-24 18:12:22 Nostradamus.IV.1944.DSR.x264-REGRET
2018-07-24 18:15:22 Candice.Renoir.S06E06.SPANiSH.1080p.HDTV.x264-FCC
2018-07-24 18:16:42 Candice.Renoir.S06E06.SPANiSH.720p.HDTV.x264-FCC
2018-07-24 18:16:53 Candice.Renoir.S06E06.SPANiSH.HDTV.x264-FCC
2018-07-24 18:17:06 Elementary.S06E11.SPANiSH.1080p.HDTV.x264-FCC
2018-07-24 18:17:20 Elementary.S06E11.SPANiSH.720p.HDTV.x264-FCC
2018-07-24 18:17:31 Elementary.S06E11.SPANiSH.HDTV.x264-FCC
2018-07-24 18:19:10 VA_-_Summer_Holidays_Vol_3-(CM043)-WEB-2018-ZzZz
2018-07-24 18:21:58 VA_-_Music_Compilation_Vol_9-(IM0127)-WEB-2018-ZzZz
2018-07-24 18:22:18 Script.Girl.1938.DSR.x264-REGRET
2018-07-24 18:25:21 VA_-_Soulhaus_Vol_5_Ibiza_Summer_Deep-(RIMVA1478)-WEB-2018-ZzZz
2018-07-24 18:29:46 Sette.NR29.2018.iTALiAN.RETAiL.MAGAZiNE.eBook-DiVER
2018-07-24 18:31:18 La.Lettura.NR347.2018.iTALiAN.RETAiL.MAGAZiNE.eBook-DiVER
2018-07-24 18:32:17 L.Economia.Del.Corriere.Della.Sera.07.23.2018.iTALiAN.RETAiL.eBook-DiVER
2018-07-24 18:38:30 Traffik.2018.COMPLETE.BLURAY-LAZERS
2018-07-24 18:39:52 House.Hunters.International.S118E07.Silicon.Valley.to.Amsterdam.720p.WEBRip.x264-CAFFEiNE
2018-07-24 18:40:01 House.Hunters.International.S118E07.Silicon.Valley.to.Amsterdam.WEBRip.x264-CAFFEiNE
2018-07-24 18:41:08 Cardinal.S01E01.MULTi.1080p.HDTV.x264-HYBRiS
2018-07-24 18:41:32 Cardinal.S01E02.MULTi.1080p.HDTV.x264-HYBRiS
2018-07-24 18:41:38 Chicago.Med.S03E19.GERMAN.720p.HDTV.x264-ACED
2018-07-24 18:42:08 Cardinal.S01E03.MULTi.1080p.HDTV.x264-HYBRiS
2018-07-24 18:42:31 Chicago.Med.S03E19.GERMAN.HDTV.x264-ACED
2018-07-24 18:42:45 Cardinal.S01E04.MULTi.1080p.HDTV.x264-HYBRiS
2018-07-24 18:43:24 Cardinal.S01E05.MULTi.1080p.HDTV.x264-HYBRiS
2018-07-24 18:43:27 Legends.of.Tomorrow.S03E02.GERMAN.720p.HDTV.x264-ACED
2018-07-24 18:43:35 Dragons_Lair_Trilogy-DINOByTES
2018-07-24 18:44:03 Cardinal.S01E06.FiNAL.MULTi.1080p.HDTV.x264-HYBRiS
2018-07-24 18:44:17 Legends.of.Tomorrow.S03E02.GERMAN.HDTV.x264-ACED
2018-07-24 18:47:09 Zle.pondeli.1960.CZECH.HDTV.x264-I_KnoW
2018-07-24 18:47:17 Hochsee.Cowboys.S07E11.Eine.ungewisse.Zukunft.GERMAN.DOKU.720p.HDTV.x264-RiO
2018-07-24 18:48:16 Hochsee.Cowboys.S07E11.Eine.ungewisse.Zukunft.GERMAN.DOKU.HDTV.x264-RiO
2018-07-24 18:49:12 Will.Castro.Der.Pimp-Profi.S02E05.DJ.Khaleds.Jeep.Wrangler.GERMAN.DOKU.720p.HDTV.x264-MOUSECLiCK
2018-07-24 18:50:06 Will.Castro.Der.Pimp-Profi.S02E05.DJ.Khaleds.Jeep.Wrangler.GERMAN.DOKU.HDTV.x264-MOUSECLiCK
2018-07-24 18:50:11 Young.Sheldon.S01E22.FiNAL.FRENCH.720p.HDTV.x264-SH0W
2018-07-24 18:58:25 Young.Sheldon.S01E22.FiNAL.FRENCH.HDTV.x264-AMB3R
2018-07-24 18:58:27 Dino_Sor_-_Next_Level-(LNC263)-WEB-2018-ZzZz
2018-07-24 19:03:16 Datawave_-_Mindscapes_EP-(MTROND005)-WEB-2018-ZzZz
2018-07-24 19:07:26 Bootmasters_-_Friends_(Just_Be_Good_To_Me)-WEB-2009-ZzZz
2018-07-24 19:07:47 Bad.Rap.2016.DOC.SUBFRENCH.1080p.WEB.x264-SPOiLER
2018-07-24 19:11:41 Genox_-_Blind_When_I_Dance-(SPOON135)-WEB-2018-SRG
2018-07-24 19:14:08 Bootmasters_-_Groove_Is_In_The_Heart-(ZYX10828)-WEB-2012-ZzZz
2018-07-24 19:16:39 Bad.Rap.2016.DOC.SUBFRENCH.720p.WEB.x264-SPOiLER
2018-07-24 19:17:38 Boa_-_Boa_2-WEB-ES-2013-KNOWN
2018-07-24 19:18:50 Degos_And_Re-Done_-_I_Am_Lost-(NB062)-WEB-2018-SRG
2018-07-24 19:20:15 Semblance-PLAZA
2018-07-24 19:21:08 Boa_-_Todo_Muere-WEB-ES-2018-KNOWN
2018-07-24 19:22:21 Bootmasters_-_Just_Keep_the_Groove-(MLRH005)-WEB-2014-ZzZz
2018-07-24 19:24:42 Bootmasters_-_Just_Keep_the_Groove-(MLRH008)-WEB-2014-ZzZz
2018-07-24 19:24:43 Coldcasket_-_Coldcasket-EP-WEB-2018-KNOWN
2018-07-24 19:26:36 Bootmasters_-_Just_Keep_the_Groove-(MLRH009)-WEB-2014-ZzZz
2018-07-24 19:27:19 Coldcasket_-_O.D-SINGLE-WEB-2017-KNOWN
2018-07-24 19:28:25 Bootmasters_-_Just_Keep_the_Groove_(Djane_Thunderpussy_Warm-Up_Remix)-(MLRC019)-WEB-2014-ZzZz
2018-07-24 19:30:30 Bootmasters_-_Just_Keep_the_Groove_(Major_Tosh_Remix)-(MLRH006)-WEB-2014-ZzZz
2018-07-24 19:32:54 Fit_of_Rage_-_No_Fate-WEB-2018-KNOWN
2018-07-24 19:33:24 Archer.2009.S09E06.SPANiSH.1080p.HDTV.x264-FCC
2018-07-24 19:33:33 Archer.2009.S09E06.SPANiSH.720p.HDTV.x264-FCC
2018-07-24 19:33:47 Archer.2009.S09E06.SPANiSH.HDTV.x264-FCC
2018-07-24 19:34:54 Hard_Hitterz_-_Drums_Of_War-(DIG160229)-WEB-2018-ZzZz
2018-07-24 19:36:43 Grip_-_Petla_Iluzji-EP-WEB-PL-2016-KNOWN
2018-07-24 19:37:04 Sol_10_-_Bass_Star-(DIG160228)-WEB-2017-ZzZz
2018-07-24 19:40:56 Blacked.18.07.24.Haley.Reed.XXX.1080p.MP4-KTR
2018-07-24 19:43:06 Inverter_-_Inverter-WEB-2015-KNOWN
2018-07-24 19:44:06 Blacked.18.07.24.Haley.Reed.XXX.2160p.MP4-KTR
2018-07-24 19:44:52 The_Speed_Freak_-_The_Best_Of_25_Years_(1992-2017)-(ZYX211432)-WEB-2017-ZzZz
2018-07-24 19:46:37 Inverter_-_Bare_Bones-WEB-2018-KNOWN
2018-07-24 19:47:16 Young.Sheldon.S01E22.FiNAL.MULTi.1080p.HDTV.x264-HYBRiS
2018-07-24 19:48:49 Love.Island.2015.S03E21.WEB.x264-CROSSFIT
2018-07-24 19:49:36 He_Who_Dredz_-_Caged_in_Rage-EP-WEB-2008-KNOWN
2018-07-24 19:50:01 Australian.Survivor.S04E04.WEB.h264-CROSSFIT
2018-07-24 19:50:05 VA_-_90s_Dance_Hits_Nonstop-(ZYX558102)-WEB-2016-ZzZz
2018-07-24 19:51:21 Australian.Survivor.S04E05.WEB.h264-CROSSFIT
2018-07-24 19:52:31 Australian.Survivor.S04E06.WEB.h264-CROSSFIT
2018-07-24 19:53:40 Pool.Kings.S05E07.Cabanas.and.Cannonballs.1080p.WEB.h264-CAFFEiNE
2018-07-24 19:53:45 Pool.Kings.S05E07.Cabanas.and.Cannonballs.WEB.h264-CAFFEiNE
2018-07-24 19:53:59 Love.Island.2015.S03E21.720p.WEB.x264-KLINGON
2018-07-24 19:55:07 Saint_League_-_Part_One_Crown-EP-WEB-2018-KNOWN
2018-07-24 19:55:30 Australian.Survivor.S04E04.720p.WEB.h264-KLINGON
2018-07-24 19:55:41 WildOnCam.18.07.24.Zoey.Foxx.XXX.1080p.MP4-KTR
2018-07-24 19:56:04 Pool.Kings.S05E08.Texas-Sized.Retreat.1080p.WEB.h264-CAFFEiNE
2018-07-24 19:56:10 Pool.Kings.S05E08.Texas-Sized.Retreat.WEB.h264-CAFFEiNE
2018-07-24 19:58:11 Australian.Survivor.S04E05.720p.WEB.h264-KLINGON
2018-07-24 20:01:07 Australian.Survivor.S04E06.720p.WEB.h264-KLINGON
2018-07-24 20:05:03 Love.Island.2015.S03E21.1080p.WEB.x264-KLINGON
2018-07-24 20:05:05 AbbyWinters.18.07.24.Arina.And.Marina.T.Intimate.Moments.XXX.1080p.MP4-KTR
2018-07-24 20:07:28 Comfort.Food.Tour.S01E01.Tex-Mex.to.the.Max.720p.WEBRip.x264-CAFFEiNE
2018-07-24 20:07:33 Comfort.Food.Tour.S01E01.Tex-Mex.to.the.Max.WEBRip.x264-CAFFEiNE
2018-07-24 20:07:47 Swallowed.18.07.24.Penelope.Reed.XXX.1080p.MP4-KTR
2018-07-24 20:08:34 Andrea_Scopsi_-_Code-165-(10136271)-WEB-2018-ZzZz
2018-07-24 20:09:20 Comfort.Food.Tour.S01E02.Ooey.Gooey.Goodness.720p.WEBRip.x264-CAFFEiNE
2018-07-24 20:09:26 Comfort.Food.Tour.S01E02.Ooey.Gooey.Goodness.WEBRip.x264-CAFFEiNE
2018-07-24 20:10:46 Romix_Fly_-_Necesito_Tu_Amor-(CSPT14)-WEB-2018-ZzZz
2018-07-24 20:12:45 Iron_Lotus_-_Skog-(MMDDIGI058)-WEB-2018-ZzZz
2018-07-24 20:14:15 Empire.S04E08.POLISH.HDTV.x264-A4O
2018-07-24 20:15:53 Frank_Beat_-_Gloom-(3615932921278)-WEB-2018-ZzZz
2018-07-24 20:16:03 Das.Schweigen.1963.German.720p.BluRay.x264-SPiCY
2018-07-24 20:16:14 Das.Schweigen.German.REMASTERED.1963.AC3.BDRip.x264-SPiCY
2018-07-24 20:20:04 Le.Monde.21.Juillet.2018.French.Retail.eBook-FMR
2018-07-24 20:20:16 Le.Monde.M.21.Juillet.2018.French.Retail.eBook-FMR
2018-07-24 20:20:21 Le.Monde.22.Juillet.2018.French.Retail.eBook-FMR
2018-07-24 20:20:41 Le.Monde.24.Juillet.2018.French.Retail.eBook-FMR
2018-07-24 20:22:03 No.Mans.Sky.NEXT-CODEX
2018-07-24 20:22:05 VA_-_Nothing_But_Techno_Essentials_Vol_04-(NBTCE004)-WEB-2018-ZzZz
2018-07-24 20:23:48 Empire.S04E09.POLISH.HDTV.x264-A4O
2018-07-24 20:26:12 Power.2014.S05E04.MULTi.1080p.HDTV.x264-HYBRiS
2018-07-24 20:27:24 Pinocchio.1940.iNTERNAL.FiNNiSH.1080p.BluRay.x264-VALKOKANGAS
2018-07-24 20:27:33 Alex_Schwarze_-_Amorphic_Mutations-(10138064)-WEB-2018-ZzZz
2018-07-24 20:27:53 Preacher.S03E05.MULTi.1080p.HDTV.x264-HYBRiS
2018-07-24 20:28:46 Harukana.Receive.E03.SUBFRENCH.720p.HDTV.x264-AMB3R
2018-07-24 20:28:49 Playboy.2018.06.GERMAN.RETAiL.MAGAZiNE.eBOOk-sUppLeX
2018-07-24 20:28:51 Harukana.Receive.E03.SUBFRENCH.HDTV.x264-AMB3R
2018-07-24 20:28:59 Playboy.2018.07.GERMAN.RETAiL.MAGAZiNE.eBOOk-sUppLeX
2018-07-24 20:29:02 Playboy.2018.08.GERMAN.RETAiL.MAGAZiNE.eBOOk-sUppLeX
2018-07-24 20:30:46 Next_-_Youre_an_Illusion_(12_Inc)-WEB-2010-ZzZz
2018-07-24 20:31:19 Sharp.Objects.S01E03.MULTi.1080p.HDTV.x264-HYBRiS
2018-07-24 20:32:38 Ridiculous.Cakes.S02E05.Its.Vegas.Baby.1080p.WEB.h264-CAFFEiNE
2018-07-24 20:32:43 Ridiculous.Cakes.S02E05.Its.Vegas.Baby.WEB.h264-CAFFEiNE
2018-07-24 20:33:16 El.Aviso.2018.iNTERNAL.MULTi.1080p.WEB.x264-SPOiLER
2018-07-24 20:34:07 El.Aviso.2018.iNTERNAL.FRENCH.720p.WEB.x264-SPOiLER
2018-07-24 20:34:28 VA_-_Netswork_Top_Tunes_2018_Vol_6-(NWI1255)-WEB-2018-ZzZz
2018-07-24 20:40:56 Ridiculous.Cakes.S02E06.Dont.Mess.With.Texas.1080p.WEB.h264-CAFFEiNE
2018-07-24 20:41:02 Ridiculous.Cakes.S02E06.Dont.Mess.With.Texas.WEB.h264-CAFFEiNE
2018-07-24 20:42:00 Seal.Team.S01E11.FRENCH.720p.WEB.H264-SH0W
2018-07-24 20:43:04 TU.VEUX.PAS.ARRETER.DE.PRE.DE.LA.MERDE.ET.RETOURNER.SOULER.LA.SCENE.MP3.MERCI.2018.FRENCH.720p.WEB.x264-JUSTFUCKOFFALREADY
2018-07-24 20:47:05 Das.Schweigen.1963.German.1080p.BluRay.x264-SPiCY
2018-07-24 20:49:34 Das.Schweigen.1963.German.DL.1080p.BluRay.AVC-HOVAC
2018-07-24 20:51:14 The.Block.NZ.S07E11.720p.HDTV.x264-FiHTV
2018-07-24 20:57:45 EXILE-STAR_OF_WISH-WEB-JP-2018-TosK
2018-07-24 20:57:57 SHISHIDO_KAVKA-DOUBLE_TONE-EP-WEB-JP-2018-TosK
2018-07-24 20:58:03 Eggheads.S20E20.720p.HDTV.X264-CREED
2018-07-24 20:58:19 Dennis.and.Gnasher.Unleashed.S01E50.720p.HDTV.x264-DEADPOOL
2018-07-24 20:58:28 Dennis.and.Gnasher.Unleashed.S01E50.HDTV.x264-DEADPOOL
2018-07-24 20:58:30 PrivateCasting-X.18.07.04.Ashley.Lane.XXX.1080p.MP4-KTR
2018-07-24 21:00:22 Tetraface.Inc.Metasequoia.v4.6.6.Incl.Keygen-AMPED
2018-07-24 21:00:32 Tetraface.Inc.Metasequoia.v4.6.6.MACOSX.Incl.Keygen-AMPED
2018-07-24 21:00:43 Tetraface.Inc.Metasequoia.v4.6.6.X64.Incl.Keygen-AMPED
2018-07-24 21:01:55 PrivateCasting-X.18.07.04.Ashley.Lane.XXX.2160p.MP4-KTR
2018-07-24 21:03:19 Enquete.Exclusive.A10.L.Autoroute.De.Tous.Les.Dangers.DOC.FRENCH.720p.HDTV.x264-SH0W
2018-07-24 21:03:28 Enquete.Exclusive.A10.L.Autoroute.De.Tous.Les.Dangers.DOC.FRENCH.HDTV.x264-SH0W
2018-07-24 21:12:38 Steam-The_Blacksmiths_Apprentice-(OBSCR047)-WEB-2018-B2R
2018-07-24 21:25:47 Blindspot.S03E10.FRENCH.HDTV.x264-AMB3R
2018-07-24 21:26:06 Spiegel.TV.Magazin.2018.07.16.GERMAN.Doku.WS.HDrip.x264-WMZ
2018-07-24 21:26:23 Mensonges.S01E05.MULTi.1080p.HDTV.x264-HYBRiS
2018-07-24 21:27:10 Seal.Team.S01E12.FRENCH.720p.WEB.H264-SH0W
2018-07-24 21:28:26 Empire.S04E05.POLISH.720p.HDTV.x264-A4O
2018-07-24 21:31:28 Extra.Das.RTL.Magazin.2018.07.16.GERMAN.Doku.WS.HDrip.x264-WMZ
2018-07-24 21:31:31 Karl.Meltzer.Made.To.Be.Broken.2017.DOC.SUBFRENCH.1080p.WEB.x264-SPOiLER
2018-07-24 21:31:50 Mensonges.S01E06.MULTi.1080p.HDTV.x264-HYBRiS
2018-07-24 21:32:18 Karl.Meltzer.Made.To.Be.Broken.2017.DOC.SUBFRENCH.720p.WEB.x264-SPOiLER
2018-07-24 21:33:46 Elementary.S05E02.Mehrere.Staedte.wert.German.DL.WS.DVDRip.x264-CDP
2018-07-24 21:34:52 Empire.S04E06.POLISH.720p.HDTV.x264-A4O
2018-07-24 21:34:55 Elementary.S05E03.Der.nackte.Zeuge.German.DL.WS.DVDRip.x264-CDP
2018-07-24 21:36:00 Elementary.S05E04.Gefahr.aus.dem.Weltraum.German.DL.WS.DVDRip.x264-CDP
2018-07-24 21:37:02 Elementary.S05E05.Der.gejagte.Jaeger.German.DL.WS.DVDRip.x264-CDP
2018-07-24 21:38:10 Elementary.S05E06.Schlangengift.German.DL.WS.DVDRip.x264-CDP
2018-07-24 21:38:14 Legion.S02E01.FRENCH.720p.HDTV.x264-SH0W
2018-07-24 21:39:15 Elementary.S05E07.Overkill.German.DL.WS.DVDRip.x264-CDP
2018-07-24 21:40:03 Jack.B.Nimble.RiP-DARKSiDERS
2018-07-24 21:40:20 Elementary.S05E08.Es.geht.um.die.Wurst.German.DL.WS.DVDRip.x264-CDP
2018-07-24 21:41:29 Elementary.S05E09.Tod.eines.Verraeters.German.DL.WS.DVDRip.x264-CDP
2018-07-24 21:42:34 Elementary.S05E10.Waehle.Dein.Gift.German.DL.WS.DVDRip.x264-CDP
2018-07-24 21:43:37 Elementary.S05E11.Versteckspiel.German.DL.WS.DVDRip.x264-CDP
2018-07-24 21:43:44 Rudi.Assauer.Macher.Mensch.Legende.German.2018.DOKU.BDRiP.x264-MOViEiT
2018-07-24 21:43:59 Si_Begg-Kicking_Off_Original_Motion_Picture_Soundtrack-WEB-2016-ENTiTLED
2018-07-24 21:44:46 Elementary.S05E12.Ein.toter.Clown.German.DL.WS.DVDRip.x264-CDP
2018-07-24 21:45:11 Brian_Brainstorm-Forward-(LNDBEP005)-WEB-2017-ENSLAVE
2018-07-24 21:45:50 Elementary.S05E13.Fuenf.Jahre.German.DL.WS.DVDRip.x264-CDP
2018-07-24 21:46:09 Fortune.And.Gloria.RiP-DARKSiDERS
2018-07-24 21:46:56 Elementary.S05E14.Tod.im.Livestream.German.DL.WS.DVDRip.x264-CDP
2018-07-24 21:47:16 The.Affair.S04E06.FRENCH.720p.HDTV.x264-SH0W
2018-07-24 21:47:38 Rudi.Assauer.Macher.Mensch.Legende.2018.German.DOKU.720p.BluRay.x264-MOViEiT
2018-07-24 21:48:00 Elementary.S05E15.Falsche.Strassenseite.German.DL.WS.DVDRip.x264-CDP
2018-07-24 21:48:29 Who.Is.America.S01E02.GERMAN.SUBBED.720p.HDTV.x264-ACED
2018-07-24 21:49:25 Who.Is.America.S01E02.GERMAN.SUBBED.HDTV.x264-ACED
2018-07-24 22:00:37 Chicago.Fire.S06E19.Am.Scheideweg.German.Dubbed.HDTV.x264-ITG
2018-07-24 22:02:46 Ready.Player.One.2018.MULTi.1080p.BluRay.x264-LOST
2018-07-24 22:03:32 Allsang.Pa.Skansen.2018.E05.SWEDiSH.720p.HDTV.x264-CCCAM
2018-07-24 22:04:02 Seal.Team.S01E11.FRENCH.HDTV.x264-AMB3R
2018-07-24 22:04:57 Chicago.Fire.S06E19.Am.Scheideweg.GERMAN.DUBBED.720p.HDTV.x264-ZZGtv
2018-07-24 22:06:19 Ready.Player.One.2018.FRENCH.720p.BluRay.x264-LOST
2018-07-24 22:06:29 Pete_Tong_-_All_Gone_Pete_Tong__Incl_The_Hotmix_by_Willaris_K-CABLE-07-24-2018-TALiON
2018-07-24 22:07:32 Rudi.Assauer.Macher.Mensch.Legende.2018.German.DOKU.1080p.BluRay.x264-MOViEiT
2018-07-24 22:08:26 Ready.Player.One.2018.3D.COMPLETE.BLURAY-PCH
2018-07-24 22:08:39 Legion.S02E01.FRENCH.HDTV.x264-AMB3R
2018-07-24 22:12:23 Ready.Player.One.2018.COMPLETE.QC.BLURAY-4FR
2018-07-24 22:14:37 Aces.of.the.Luftwaffe.Squadron-SKIDROW
2018-07-24 22:15:13 The.Affair.S04E06.FRENCH.HDTV.x264-AMB3R
2018-07-24 22:22:53 Blindspot.S03E11.FRENCH.HDTV.x264-AMB3R
2018-07-24 22:23:16 DCs.Legends.of.Tomorrow.S03E02.German.HDTV.720p.x264-ARC
2018-07-24 22:23:42 MacGyver.S02E05.German.HDTV.1080p.x264-ARC
2018-07-24 22:23:55 12.Monkeys.S04E10.FRENCH.720p.HDTV.x264-SH0W
2018-07-24 22:24:11 MacGyver.S02E06.German.HDTV.1080p.x264-ARC
2018-07-24 22:29:00 18_Karat_-_Geld_Gold_Gras_(Supremos_Tour_Edition)-DE-2018-KNOWN
2018-07-24 22:30:22 Rudi.Assauer.Macher.Mensch.Legende.2018.GERMAN.DOKU.COMPLETE.BLURAY-MOViEiT
2018-07-24 22:31:04 Legion.S02E02.FRENCH.720p.HDTV.x264-SH0W
2018-07-24 22:31:56 Ready.Player.One.2018.FRENCH.BDRip.x264-PRiDEHD
2018-07-24 22:32:41 Joane_Skyler-Serious_Time-(CER01)-WEB-2017-ENSLAVE
2018-07-24 22:35:05 Seal.Team.S01E12.FRENCH.HDTV.x264-AMB3R
2018-07-24 22:40:42 Babert_-_Shadow_Dancer-(DISCOREVENGE_064)-WEB-2018-ZzZz
2018-07-24 22:40:56 Di_Chiara_Brothers_-_Feeling_Good-(DVS_036)-WEB-2018-ZzZz
2018-07-24 22:41:13 DJ_Queen_B_-_Figment-(MFR139)-WEB-2018-ZzZz
2018-07-24 22:41:30 Inve_and_Forsi_-_Nu_Discorchestra-(SDV_013)-WEB-2018-ZzZz
2018-07-24 22:41:44 Junior_Sanchez_-_Live_4_Da_Funk-(BB063)-WEB-2018-ZzZz
2018-07-24 22:42:01 Paolo_Martini_-_Dance_To_Dance_EP-(PSB_081)-WEB-2018-ZzZz
2018-07-24 22:43:21 Das.Sommerhaus.der.Stars.Kampf.der.Promipaare.S03E03.GERMAN.720p.HDTV.x264-RTL
2018-07-24 22:44:53 Das.Sommerhaus.der.Stars.Kampf.der.Promipaare.S03E03.GERMAN.HDTV.x264-RTL
2018-07-24 22:48:30 Blindspot.S03E10.FRENCH.720p.HDTV.x264-SH0W
2018-07-24 22:48:32 Blindspot.S03E11.FRENCH.720p.HDTV.x264-SH0W
2018-07-24 22:48:35 Blindspot.S03E12.FRENCH.720p.HDTV.x264-SH0W
2018-07-24 22:50:58 Legion.S02E02.FRENCH.HDTV.x264-AMB3R
2018-07-24 22:54:37 12.Monkeys.S04E09.FRENCH.HDTV.x264-AMB3R
2018-07-24 22:57:12 Blindspot.S03E12.German.DL.DUBBED.1080p.WebHD.x264-AIDA
2018-07-24 22:57:38 Blindspot.S03E12.German.DL.DUBBED.720p.WebHD.x264-AIDA
2018-07-24 22:57:59 Blindspot.S03E12.German.DUBBED.WebRip.x264-AIDA
2018-07-24 22:58:22 Our.Girl.S04E08.720p.HDTV.x264-ORGANiC
2018-07-24 22:58:27 Blindspot.S03E13.German.DL.DUBBED.1080p.WebHD.x264-AIDA
2018-07-24 22:58:46 Blindspot.S03E13.German.DL.DUBBED.720p.WebHD.x264-AIDA
2018-07-24 22:59:12 Blindspot.S03E13.German.DUBBED.WebRip.x264-AIDA
2018-07-24 22:59:35 The.Affair.S04E06.German.1080p.WebHD.x264-AIDA
2018-07-24 22:59:53 Holby.City.S20E30.720p.HDTV.x264-MTB
2018-07-24 23:00:02 The.Affair.S04E06.German.720p.WebHD.x264-AIDA
2018-07-24 23:00:25 The.Affair.S04E06.German.WebRip.x264-AIDA
2018-07-24 23:01:14 Holby.City.S20E30.HDTV.x264-MTB
2018-07-24 23:02:36 Holby.City.S20E30.1080p.HDTV.H264-MTB
2018-07-24 23:05:53 Sturm.der.Gefuehle.Das.Leben.der.Bronte.Schwestern.German.2016.AC3.DVDRiP.x264-KAF
2018-07-24 23:08:35 Ikon-The_Echoes_Of_Silence-CDEP-FLAC-1994-AMOK
2018-07-24 23:09:28 Mamma.Mia.Here.We.Go.Again.Das.grosse.Special.zum.Film.German.DOKU.HDTVRip.x264-DOKUMANiA
2018-07-24 23:10:10 Blindspot.S03E12.FRENCH.HDTV.x264-AMB3R
2018-07-24 23:10:32 Otto.Die.Doku.2018.German.DOKU.1080p.HDTV.x264-DOKUMANiA
2018-07-24 23:11:37 Otto.Die.Doku.2018.German.DOKU.720p.HDTV.x264-DOKUMANiA
2018-07-24 23:11:49 12.Monkeys.S04E10.FRENCH.HDTV.x264-AMB3R
2018-07-24 23:12:41 Otto.Die.Doku.2018.German.DOKU.HDTVRip.x264-DOKUMANiA
2018-07-24 23:14:22 12.Monkeys.S04E11.FiNAL.FRENCH.720p.HDTV.x264-SH0W
2018-07-24 23:28:25 Lord.of.Vermilion.Guren.no.Ou.E02.SUBFRENCH.720p.HDTV.x264-AMB3R
2018-07-24 23:28:40 Red.Sparrow.2018.PL.DUAL.720p.BluRay.x264-FLAME
2018-07-24 23:28:42 Lord.of.Vermilion.Guren.no.Ou.E02.SUBFRENCH.HDTV.x264-AMB3R
2018-07-24 23:30:24 Red.Sparrow.2018.PL.DUAL.1080p.BluRay.x264-FLAME
2018-07-24 23:31:37 Our.Girl.S04E08.HDTV.x264-MTB
2018-07-24 23:33:13 Pacific.Rim.Uprising.2018.MULTi.COMPLETE.UHD.BLURAY-FLAME
2018-07-24 23:33:42 Ready.Player.One.2018.DVDR-JFKDVD
2018-07-24 23:34:32 Our.Girl.S04E08.1080p.HDTV.H264-MTB
2018-07-24 23:42:18 MasterChef.Australia.S10E57.HDTV.x264-FQM
2018-07-24 23:43:01 MasterChef.Australia.S10E57.720p.HDTV.x264-ORENJI
2018-07-24 23:46:16 Tom_Petty-Full_Moon_Fever-WEB-1989-ENTiTLED_iNT
2018-07-24 23:46:28 Tom_Petty-Into_The_Great_Wide_Open-WEB-1991-ENTiTLED_iNT
2018-07-24 23:46:38 Tom_Petty-Long_After_Dark-WEB-1982-ENTiTLED_iNT
2018-07-24 23:46:49 Tom_Petty-Wildflowers-WEB-1994-ENTiTLED_iNT
2018-07-24 23:47:00 Tom_Petty_And_The_Heartbreakers-Damn_The_Torpedoes_(Deluxe_Edition)-WEB-1979-ENTiTLED_iNT
2018-07-24 23:47:12 Tom_Petty_And_The_Heartbreakers-Echo-WEB-1999-ENTiTLED_iNT
2018-07-24 23:47:22 Tom_Petty_And_The_Heartbreakers-Hard_Promises-WEB-1981-ENTiTLED_iNT
2018-07-24 23:47:33 Tom_Petty_And_The_Heartbreakers-Mojo-WEB-2010-ENTiTLED_iNT
2018-07-24 23:47:44 Tom_Petty_And_The_Heartbreakers-Southern_Accents-WEB-1985-ENTiTLED_iNT
2018-07-24 23:47:55 Tom_Petty_and_The_Heart_Breakers-Tom_Petty_and_The_Heartbreakers-WEB-1976-ENTiTLED_iNT